PWSweather.com
Personal Weather Stations
Station Observations
IARDEA01
Ardea, ArdeaIT 00040

ArdeaArdeaIT 00040

Lat: 41.599, Lon: 12.513

Elevation: 66

Station Type: PCE-FSW 20

http://meteoardea.altervista.org

Latest ConditionsUpdated 4:41:50 PM GMT+01:01 Tuesday, Jan 16, 2018
Currently Today's Max Today's Min Today's Average
Temperature 58.3°F14.6°C 58.3°F14.6°C 47.8°F8.8°C 54.5°F12.5°C
Dew Point 49.3°F9.6°C 49.5°F9.7°C 43.2°F6.2°C 46.2°F7.9°C
Winds 7.6 mph W12.2 kmh W 14.5 mph SE23.3 kmh SE - 7.0 mph 11.3 kmh
Wind Gusts 11.4 mph18.3 kmh 20.6 mph33.2 kmh - -
Humidity 72% 86% 67% 74%
Pressure 29.94 in1013.9 mb 30.17 in1021.7 mb 29.93 in1013.5 mb -
Precipitation - 0.15 in3.8 mm - -
Hour Temp Dew Point Humidity Winds Wind Gusts Pressure Precip Precip Rate Daily Precip Total
04:41 PM 58.3°F14.6°C 49.3°F9.6°C 72% 7.6 mph W12.2 kmh W 11.4 mph18.3 kmh 29.94 in1013.9 mb 0.00 in0.0 mm 0.00 in0.0 mm 0.15 in3.8 mm
04:39 PM 58.3°F14.6°C 49.3°F9.6°C 72% 9.2 mph NW14.8 kmh NW 13.0 mph20.9 kmh 29.94 in1013.9 mb 0.00 in0.0 mm 0.00 in0.0 mm 0.15 in3.8 mm
04:38 PM 58.3°F14.6°C 49.3°F9.6°C 72% 6.0 mph 9.7 kmh 10.7 mph17.2 kmh 29.94 in1013.9 mb 0.00 in0.0 mm 0.00 in0.0 mm 0.15 in3.8 mm
04:36 PM 58.3°F14.6°C 49.3°F9.6°C 72% 6.0 mph 9.7 kmh 10.7 mph17.2 kmh 29.94 in1013.9 mb 0.00 in0.0 mm 0.00 in0.0 mm 0.15 in3.8 mm
04:35 PM 58.3°F14.6°C 49.3°F9.6°C 72% 9.2 mph W14.8 kmh W 12.1 mph19.5 kmh 29.93 in1013.5 mb 0.00 in0.0 mm 0.00 in0.0 mm 0.15 in3.8 mm
04:33 PM 58.3°F14.6°C 49.3°F9.6°C 72% 7.6 mph SW12.2 kmh SW 12.1 mph19.5 kmh 29.94 in1013.9 mb 0.00 in0.0 mm 0.00 in0.0 mm 0.15 in3.8 mm
04:32 PM 58.3°F14.6°C 49.3°F9.6°C 72% 12.1 mph W19.5 kmh W 15.2 mph24.5 kmh 29.93 in1013.5 mb 0.00 in0.0 mm 0.00 in0.0 mm 0.15 in3.8 mm
04:30 PM 58.3°F14.6°C 49.3°F9.6°C 72% 12.1 mph W19.5 kmh W 15.2 mph24.5 kmh 29.93 in1013.5 mb 0.00 in0.0 mm 0.00 in0.0 mm 0.15 in3.8 mm
04:29 PM 58.3°F14.6°C 49.3°F9.6°C 72% 8.3 mph S13.4 kmh S 11.4 mph18.3 kmh 29.94 in1013.9 mb 0.00 in0.0 mm 0.00 in0.0 mm 0.15 in3.8 mm
04:27 PM 58.3°F14.6°C 49.3°F9.6°C 72% 6.9 mph W11.1 kmh W 9.2 mph14.8 kmh 29.94 in1013.9 mb 0.00 in0.0 mm 0.00 in0.0 mm 0.15 in3.8 mm
04:26 PM 58.3°F14.6°C 49.3°F9.6°C 72% 6.0 mph W9.7 kmh W 13.0 mph20.9 kmh 29.94 in1013.9 mb 0.00 in0.0 mm 0.00 in0.0 mm 0.15 in3.8 mm
04:24 PM 58.3°F14.6°C 49.3°F9.6°C 72% 6.0 mph W9.7 kmh W 13.0 mph20.9 kmh 29.94 in1013.9 mb 0.00 in0.0 mm 0.00 in0.0 mm 0.15 in3.8 mm
04:23 PM 58.3°F14.6°C 49.3°F9.6°C 72% 9.8 mph W15.8 kmh W 14.5 mph23.3 kmh 29.94 in1013.9 mb 0.00 in0.0 mm 0.00 in0.0 mm 0.15 in3.8 mm
04:21 PM 58.3°F14.6°C 49.3°F9.6°C 72% 8.3 mph W13.4 kmh W 13.0 mph20.9 kmh 29.94 in1013.9 mb 0.00 in0.0 mm 0.00 in0.0 mm 0.15 in3.8 mm
04:19 PM 58.3°F14.6°C 49.3°F9.6°C 72% 5.4 mph S8.7 kmh S 6.9 mph11.1 kmh 29.94 in1013.9 mb 0.00 in0.0 mm 0.00 in0.0 mm 0.15 in3.8 mm
04:18 PM 58.3°F14.6°C 49.3°F9.6°C 72% 5.4 mph S8.7 kmh S 6.9 mph11.1 kmh 29.94 in1013.9 mb 0.00 in0.0 mm 0.00 in0.0 mm 0.15 in3.8 mm
04:16 PM 58.3°F14.6°C 49.3°F9.6°C 72% 6.0 mph W9.7 kmh W 9.8 mph15.8 kmh 29.94 in1013.9 mb 0.00 in0.0 mm 0.00 in0.0 mm 0.15 in3.8 mm
04:15 PM 58.1°F14.5°C 49.5°F9.7°C 73% 6.9 mph SW11.1 kmh SW 9.2 mph14.8 kmh 29.94 in1013.9 mb 0.00 in0.0 mm 0.00 in0.0 mm 0.15 in3.8 mm
04:13 PM 58.1°F14.5°C 49.5°F9.7°C 73% 7.6 mph W12.2 kmh W 13.7 mph22.0 kmh 29.94 in1013.9 mb 0.00 in0.0 mm 0.00 in0.0 mm 0.15 in3.8 mm
04:12 PM 58.1°F14.5°C 49.5°F9.7°C 73% 7.6 mph W12.2 kmh W 13.7 mph22.0 kmh 29.94 in1013.9 mb 0.00 in0.0 mm 0.00 in0.0 mm 0.15 in3.8 mm
04:10 PM 58.1°F14.5°C 49.5°F9.7°C 73% 8.3 mph 13.4 kmh 12.1 mph19.5 kmh 29.94 in1013.9 mb 0.00 in0.0 mm 0.00 in0.0 mm 0.15 in3.8 mm
04:09 PM 58.1°F14.5°C 49.1°F9.5°C 72% 8.3 mph WNW13.4 kmh WNW 13.0 mph20.9 kmh 29.95 in1014.2 mb 0.00 in0.0 mm 0.00 in0.0 mm 0.15 in3.8 mm
04:07 PM 58.1°F14.5°C 49.1°F9.5°C 72% 9.2 mph W14.8 kmh W 13.0 mph20.9 kmh 29.95 in1014.2 mb 0.00 in0.0 mm 0.00 in0.0 mm 0.15 in3.8 mm
04:06 PM 58.1°F14.5°C 49.1°F9.5°C 72% 9.2 mph W14.8 kmh W 13.0 mph20.9 kmh 29.95 in1014.2 mb 0.00 in0.0 mm 0.00 in0.0 mm 0.15 in3.8 mm
04:04 PM 58.1°F14.5°C 49.1°F9.5°C 72% 9.2 mph W14.8 kmh W 13.0 mph20.9 kmh 29.95 in1014.2 mb 0.00 in0.0 mm 0.00 in0.0 mm 0.15 in3.8 mm
04:03 PM 58.1°F14.5°C 49.1°F9.5°C 72% 9.2 mph W14.8 kmh W 13.0 mph20.9 kmh 29.95 in1014.2 mb 0.00 in0.0 mm 0.00 in0.0 mm 0.15 in3.8 mm
04:01 PM 58.1°F14.5°C 49.1°F9.5°C 72% 9.2 mph W14.8 kmh W 13.0 mph20.9 kmh 29.95 in1014.2 mb 0.00 in0.0 mm 0.00 in0.0 mm 0.15 in3.8 mm
04:00 PM 58.1°F14.5°C 49.1°F9.5°C 72% 9.2 mph W14.8 kmh W 13.0 mph20.9 kmh 29.95 in1014.2 mb 0.00 in0.0 mm 0.00 in0.0 mm 0.15 in3.8 mm
03:58 PM 58.1°F14.5°C 49.1°F9.5°C 72% 9.2 mph W14.8 kmh W 14.5 mph23.3 kmh 29.95 in1014.2 mb 0.00 in0.0 mm 0.00 in0.0 mm 0.15 in3.8 mm
03:57 PM 57.9°F14.4°C 49.0°F9.4°C 72% 7.6 mph SW12.2 kmh SW 11.4 mph18.3 kmh 29.94 in1013.9 mb 0.00 in0.0 mm 0.00 in0.0 mm 0.15 in3.8 mm
03:56 PM 57.9°F14.4°C 49.0°F9.4°C 72% 8.3 mph SW13.4 kmh SW 12.1 mph19.5 kmh 29.95 in1014.2 mb 0.00 in0.0 mm 0.00 in0.0 mm 0.15 in3.8 mm
03:54 PM 57.9°F14.4°C 49.0°F9.4°C 72% 8.3 mph SW13.4 kmh SW 12.1 mph19.5 kmh 29.95 in1014.2 mb 0.00 in0.0 mm 0.00 in0.0 mm 0.15 in3.8 mm
03:52 PM 58.1°F14.5°C 49.1°F9.5°C 72% 6.9 mph W11.1 kmh W 9.8 mph15.8 kmh 29.95 in1014.2 mb 0.00 in0.0 mm 0.00 in0.0 mm 0.15 in3.8 mm
03:51 PM 57.9°F14.4°C 49.0°F9.4°C 72% 9.2 mph SW14.8 kmh SW 12.1 mph19.5 kmh 29.95 in1014.2 mb 0.00 in0.0 mm 0.00 in0.0 mm 0.15 in3.8 mm
03:49 PM 57.9°F14.4°C 49.0°F9.4°C 72% 7.6 mph WNW12.2 kmh WNW 11.4 mph18.3 kmh 29.95 in1014.2 mb 0.00 in0.0 mm 0.00 in0.0 mm 0.15 in3.8 mm
03:48 PM 57.9°F14.4°C 49.0°F9.4°C 72% 7.6 mph WNW12.2 kmh WNW 11.4 mph18.3 kmh 29.95 in1014.2 mb 0.00 in0.0 mm 0.00 in0.0 mm 0.15 in3.8 mm
03:46 PM 57.9°F14.4°C 49.0°F9.4°C 72% 10.7 mph W17.2 kmh W 13.7 mph22.0 kmh 29.95 in1014.2 mb 0.00 in0.0 mm 0.00 in0.0 mm 0.15 in3.8 mm
03:45 PM 57.9°F14.4°C 49.0°F9.4°C 72% 9.2 mph NW14.8 kmh NW 15.2 mph24.5 kmh 29.95 in1014.2 mb 0.00 in0.0 mm 0.00 in0.0 mm 0.15 in3.8 mm
03:43 PM 57.9°F14.4°C 49.0°F9.4°C 72% 10.7 mph NW17.2 kmh NW 13.0 mph20.9 kmh 29.95 in1014.2 mb 0.00 in0.0 mm 0.00 in0.0 mm 0.15 in3.8 mm
03:42 PM 57.9°F14.4°C 49.0°F9.4°C 72% 10.7 mph NW17.2 kmh NW 13.0 mph20.9 kmh 29.95 in1014.2 mb 0.00 in0.0 mm 0.00 in0.0 mm 0.15 in3.8 mm
03:40 PM 57.9°F14.4°C 49.0°F9.4°C 72% 13.0 mph NW20.9 kmh NW 16.8 mph27.0 kmh 29.95 in1014.2 mb 0.00 in0.0 mm 0.00 in0.0 mm 0.15 in3.8 mm
03:39 PM 57.9°F14.4°C 49.0°F9.4°C 72% 4.5 mph W7.2 kmh W 6.0 mph9.7 kmh 29.95 in1014.2 mb 0.00 in0.0 mm 0.00 in0.0 mm 0.15 in3.8 mm
03:37 PM 57.9°F14.4°C 49.0°F9.4°C 72% 12.1 mph WNW19.5 kmh WNW 13.7 mph22.0 kmh 29.95 in1014.2 mb 0.00 in0.0 mm 0.00 in0.0 mm 0.15 in3.8 mm
03:36 PM 57.9°F14.4°C 49.0°F9.4°C 72% 12.1 mph WNW19.5 kmh WNW 13.7 mph22.0 kmh 29.95 in1014.2 mb 0.00 in0.0 mm 0.00 in0.0 mm 0.15 in3.8 mm
03:34 PM 57.9°F14.4°C 49.0°F9.4°C 72% 6.9 mph SW11.1 kmh SW 9.2 mph14.8 kmh 29.96 in1014.6 mb 0.00 in0.0 mm 0.00 in0.0 mm 0.15 in3.8 mm
03:33 PM 57.9°F14.4°C 49.0°F9.4°C 72% 7.6 mph WNW12.2 kmh WNW 12.1 mph19.5 kmh 29.95 in1014.2 mb 0.00 in0.0 mm 0.00 in0.0 mm 0.15 in3.8 mm
03:31 PM 57.9°F14.4°C 49.0°F9.4°C 72% 9.8 mph W15.8 kmh W 13.7 mph22.0 kmh 29.95 in1014.2 mb 0.00 in0.0 mm 0.00 in0.0 mm 0.15 in3.8 mm
03:30 PM 57.9°F14.4°C 49.0°F9.4°C 72% 9.8 mph W15.8 kmh W 13.7 mph22.0 kmh 29.95 in1014.2 mb 0.00 in0.0 mm 0.00 in0.0 mm 0.15 in3.8 mm
03:28 PM 57.9°F14.4°C 49.0°F9.4°C 72% 9.2 mph SW14.8 kmh SW 11.4 mph18.3 kmh 29.96 in1014.6 mb 0.00 in0.0 mm 0.00 in0.0 mm 0.15 in3.8 mm
03:27 PM 57.9°F14.4°C 49.0°F9.4°C 72% 6.9 mph SW11.1 kmh SW 9.2 mph14.8 kmh 29.96 in1014.6 mb 0.00 in0.0 mm 0.00 in0.0 mm 0.15 in3.8 mm
03:25 PM 57.9°F14.4°C 49.0°F9.4°C 72% 4.5 mph W7.2 kmh W 7.6 mph12.2 kmh 29.96 in1014.6 mb 0.00 in0.0 mm 0.00 in0.0 mm 0.15 in3.8 mm
03:24 PM 57.9°F14.4°C 49.0°F9.4°C 72% 7.6 mph W12.2 kmh W 10.7 mph17.2 kmh 29.96 in1014.6 mb 0.00 in0.0 mm 0.00 in0.0 mm 0.15 in3.8 mm
03:22 PM 57.9°F14.4°C 49.0°F9.4°C 72% 7.6 mph W12.2 kmh W 10.7 mph17.2 kmh 29.96 in1014.6 mb 0.00 in0.0 mm 0.00 in0.0 mm 0.15 in3.8 mm
03:21 PM 57.9°F14.4°C 49.0°F9.4°C 72% 8.3 mph W13.4 kmh W 12.1 mph19.5 kmh 29.96 in1014.6 mb 0.00 in0.0 mm 0.00 in0.0 mm 0.15 in3.8 mm
03:19 PM 58.1°F14.5°C 49.1°F9.5°C 72% 9.2 mph W14.8 kmh W 13.7 mph22.0 kmh 29.96 in1014.6 mb 0.00 in0.0 mm 0.00 in0.0 mm 0.15 in3.8 mm
03:18 PM 58.1°F14.5°C 48.7°F9.3°C 71% 6.0 mph W9.7 kmh W 12.1 mph19.5 kmh 29.96 in1014.6 mb 0.00 in0.0 mm 0.00 in0.0 mm 0.15 in3.8 mm
03:16 PM 58.1°F14.5°C 48.7°F9.3°C 71% 6.0 mph W9.7 kmh W 12.1 mph19.5 kmh 29.96 in1014.6 mb 0.00 in0.0 mm 0.00 in0.0 mm 0.15 in3.8 mm
03:15 PM 58.1°F14.5°C 48.7°F9.3°C 71% 13.0 mph NW20.9 kmh NW 19.0 mph30.6 kmh 29.96 in1014.6 mb 0.00 in0.0 mm 0.00 in0.0 mm 0.15 in3.8 mm
03:14 PM 58.1°F14.5°C 48.7°F9.3°C 71% 9.2 mph SW14.8 kmh SW 11.4 mph18.3 kmh 29.96 in1014.6 mb 0.00 in0.0 mm 0.00 in0.0 mm 0.15 in3.8 mm
03:11 PM 58.1°F14.5°C 48.7°F9.3°C 71% 11.4 mph SW18.3 kmh SW 15.9 mph25.6 kmh 29.96 in1014.6 mb 0.00 in0.0 mm 0.00 in0.0 mm 0.15 in3.8 mm
03:10 PM 58.1°F14.5°C 48.7°F9.3°C 71% 11.4 mph SW18.3 kmh SW 15.9 mph25.6 kmh 29.96 in1014.6 mb 0.00 in0.0 mm 0.00 in0.0 mm 0.15 in3.8 mm
03:07 PM 58.3°F14.6°C 48.9°F9.4°C 71% 9.8 mph W15.8 kmh W 15.9 mph25.6 kmh 29.96 in1014.6 mb 0.00 in0.0 mm 0.00 in0.0 mm 0.15 in3.8 mm
03:05 PM 58.3°F14.6°C 48.9°F9.4°C 71% 11.4 mph NW18.3 kmh NW 14.5 mph23.3 kmh 29.96 in1014.6 mb 0.00 in0.0 mm 0.00 in0.0 mm 0.15 in3.8 mm
03:04 PM 58.3°F14.6°C 48.9°F9.4°C 71% 11.4 mph NW18.3 kmh NW 14.5 mph23.3 kmh 29.96 in1014.6 mb 0.00 in0.0 mm 0.00 in0.0 mm 0.15 in3.8 mm
03:02 PM 58.3°F14.6°C 48.9°F9.4°C 71% 10.7 mph SW17.2 kmh SW 18.3 mph29.5 kmh 29.95 in1014.2 mb 0.00 in0.0 mm 0.00 in0.0 mm 0.15 in3.8 mm
03:01 PM 58.3°F14.6°C 48.9°F9.4°C 71% 7.6 mph W12.2 kmh W 11.4 mph18.3 kmh 29.96 in1014.6 mb 0.00 in0.0 mm 0.00 in0.0 mm 0.15 in3.8 mm
02:59 PM 58.3°F14.6°C 48.9°F9.4°C 71% 9.2 mph NW14.8 kmh NW 10.7 mph17.2 kmh 29.96 in1014.6 mb 0.00 in0.0 mm 0.00 in0.0 mm 0.15 in3.8 mm
02:58 PM 58.3°F14.6°C 48.9°F9.4°C 71% 9.2 mph NW14.8 kmh NW 10.7 mph17.2 kmh 29.96 in1014.6 mb 0.00 in0.0 mm 0.00 in0.0 mm 0.15 in3.8 mm
02:56 PM 58.3°F14.6°C 48.9°F9.4°C 71% 6.9 mph W11.1 kmh W 8.3 mph13.4 kmh 29.96 in1014.6 mb 0.00 in0.0 mm 0.00 in0.0 mm 0.15 in3.8 mm
02:55 PM 58.3°F14.6°C 48.9°F9.4°C 71% 8.3 mph W13.4 kmh W 11.4 mph18.3 kmh 29.96 in1014.6 mb 0.00 in0.0 mm 0.00 in0.0 mm 0.15 in3.8 mm
02:53 PM 58.3°F14.6°C 48.9°F9.4°C 71% 9.2 mph NW14.8 kmh NW 13.7 mph22.0 kmh 29.96 in1014.6 mb 0.00 in0.0 mm 0.00 in0.0 mm 0.15 in3.8 mm
02:50 PM 58.1°F14.5°C 48.7°F9.3°C 71% 7.6 mph SW12.2 kmh SW 10.7 mph17.2 kmh 29.96 in1014.6 mb 0.00 in0.0 mm 0.00 in0.0 mm 0.15 in3.8 mm
02:49 PM 58.1°F14.5°C 48.7°F9.3°C 71% 7.6 mph W12.2 kmh W 9.8 mph15.8 kmh 29.96 in1014.6 mb 0.00 in0.0 mm 0.00 in0.0 mm 0.15 in3.8 mm
02:47 PM 57.9°F14.4°C 48.6°F9.2°C 71% 9.8 mph SE15.8 kmh SE 11.4 mph18.3 kmh 29.96 in1014.6 mb 0.00 in0.0 mm 0.00 in0.0 mm 0.15 in3.8 mm
02:46 PM 57.9°F14.4°C 48.6°F9.2°C 71% 9.8 mph SE15.8 kmh SE 11.4 mph18.3 kmh 29.96 in1014.6 mb 0.00 in0.0 mm 0.00 in0.0 mm 0.15 in3.8 mm
02:44 PM 57.9°F14.4°C 48.6°F9.2°C 71% 9.2 mph W14.8 kmh W 13.7 mph22.0 kmh 29.96 in1014.6 mb 0.00 in0.0 mm 0.00 in0.0 mm 0.15 in3.8 mm
02:43 PM 57.9°F14.4°C 48.6°F9.2°C 71% 12.1 mph 19.5 kmh 17.5 mph28.2 kmh 29.96 in1014.6 mb 0.00 in0.0 mm 0.00 in0.0 mm 0.15 in3.8 mm
02:41 PM 57.7°F14.3°C 48.4°F9.1°C 71% 10.7 mph W17.2 kmh W 13.7 mph22.0 kmh 29.96 in1014.6 mb 0.00 in0.0 mm 0.00 in0.0 mm 0.15 in3.8 mm
02:40 PM 57.7°F14.3°C 48.4°F9.1°C 71% 10.7 mph W17.2 kmh W 13.7 mph22.0 kmh 29.96 in1014.6 mb 0.00 in0.0 mm 0.00 in0.0 mm 0.15 in3.8 mm
02:38 PM 57.7°F14.3°C 48.4°F9.1°C 71% 7.6 mph SW12.2 kmh SW 10.7 mph17.2 kmh 29.96 in1014.6 mb 0.00 in0.0 mm 0.00 in0.0 mm 0.15 in3.8 mm
02:37 PM 57.7°F14.3°C 48.4°F9.1°C 71% 11.4 mph NW18.3 kmh NW 15.2 mph24.5 kmh 29.96 in1014.6 mb 0.00 in0.0 mm 0.00 in0.0 mm 0.15 in3.8 mm
02:35 PM 57.7°F14.3°C 48.4°F9.1°C 71% 8.3 mph NW13.4 kmh NW 11.4 mph18.3 kmh 29.97 in1014.9 mb 0.00 in0.0 mm 0.00 in0.0 mm 0.15 in3.8 mm
02:32 PM 57.7°F14.3°C 48.4°F9.1°C 71% 9.8 mph W15.8 kmh W 14.5 mph23.3 kmh 29.97 in1014.9 mb 0.00 in0.0 mm 0.00 in0.0 mm 0.15 in3.8 mm
02:31 PM 57.6°F14.2°C 48.2°F9.0°C 71% 11.4 mph W18.3 kmh W 14.5 mph23.3 kmh 29.97 in1014.9 mb 0.00 in0.0 mm 0.00 in0.0 mm 0.15 in3.8 mm
02:29 PM 57.6°F14.2°C 48.2°F9.0°C 71% 11.4 mph W18.3 kmh W 15.2 mph24.5 kmh 29.96 in1014.6 mb 0.00 in0.0 mm 0.00 in0.0 mm 0.15 in3.8 mm
02:28 PM 57.6°F14.2°C 48.2°F9.0°C 71% 11.4 mph W18.3 kmh W 15.2 mph24.5 kmh 29.96 in1014.6 mb 0.00 in0.0 mm 0.00 in0.0 mm 0.15 in3.8 mm
02:26 PM 57.6°F14.2°C 48.2°F9.0°C 71% 10.7 mph NE17.2 kmh NE 14.5 mph23.3 kmh 29.97 in1014.9 mb 0.00 in0.0 mm 0.00 in0.0 mm 0.15 in3.8 mm
02:25 PM 57.6°F14.2°C 48.2°F9.0°C 71% 10.7 mph NW17.2 kmh NW 13.7 mph22.0 kmh 29.96 in1014.6 mb 0.00 in0.0 mm 0.00 in0.0 mm 0.15 in3.8 mm
02:23 PM 57.6°F14.2°C 48.2°F9.0°C 71% 10.7 mph W17.2 kmh W 15.2 mph24.5 kmh 29.97 in1014.9 mb 0.00 in0.0 mm 0.00 in0.0 mm 0.15 in3.8 mm
02:22 PM 57.6°F14.2°C 48.2°F9.0°C 71% 10.7 mph W17.2 kmh W 15.2 mph24.5 kmh 29.97 in1014.9 mb 0.00 in0.0 mm 0.00 in0.0 mm 0.15 in3.8 mm
02:20 PM 57.6°F14.2°C 48.2°F9.0°C 71% 11.4 mph NW18.3 kmh NW 15.2 mph24.5 kmh 29.96 in1014.6 mb 0.00 in0.0 mm 0.00 in0.0 mm 0.15 in3.8 mm
02:19 PM 57.6°F14.2°C 48.2°F9.0°C 71% 11.4 mph W18.3 kmh W 15.9 mph25.6 kmh 29.97 in1014.9 mb 0.00 in0.0 mm 0.00 in0.0 mm 0.15 in3.8 mm
02:17 PM 57.4°F14.1°C 48.1°F8.9°C 71% 13.0 mph SW20.9 kmh SW 17.5 mph28.2 kmh 29.97 in1014.9 mb 0.00 in0.0 mm 0.00 in0.0 mm 0.15 in3.8 mm
02:16 PM 57.4°F14.1°C 48.1°F8.9°C 71% 13.0 mph SW20.9 kmh SW 17.5 mph28.2 kmh 29.97 in1014.9 mb 0.00 in0.0 mm 0.00 in0.0 mm 0.15 in3.8 mm
02:15 PM 57.4°F14.1°C 48.4°F9.1°C 72% 9.8 mph NW15.8 kmh NW 13.0 mph20.9 kmh 29.97 in1014.9 mb 0.00 in0.0 mm 0.00 in0.0 mm 0.15 in3.8 mm
02:13 PM 57.4°F14.1°C 48.1°F8.9°C 71% 11.4 mph SW18.3 kmh SW 15.2 mph24.5 kmh 29.97 in1014.9 mb 0.00 in0.0 mm 0.00 in0.0 mm 0.15 in3.8 mm
02:11 PM 57.4°F14.1°C 48.1°F8.9°C 71% 8.3 mph W13.4 kmh W 11.4 mph18.3 kmh 29.97 in1014.9 mb 0.00 in0.0 mm 0.00 in0.0 mm 0.15 in3.8 mm
02:10 PM 57.4°F14.1°C 48.1°F8.9°C 71% 8.3 mph W13.4 kmh W 11.4 mph18.3 kmh 29.97 in1014.9 mb 0.00 in0.0 mm 0.00 in0.0 mm 0.15 in3.8 mm
02:08 PM 57.2°F14.0°C 47.9°F8.8°C 71% 8.3 mph S13.4 kmh S 11.4 mph18.3 kmh 29.97 in1014.9 mb 0.00 in0.0 mm 0.00 in0.0 mm 0.15 in3.8 mm
02:07 PM 57.2°F14.0°C 47.9°F8.8°C 71% 12.1 mph SW19.5 kmh SW 15.9 mph25.6 kmh 29.98 in1015.2 mb 0.00 in0.0 mm 0.00 in0.0 mm 0.15 in3.8 mm
02:05 PM 57.2°F14.0°C 47.9°F8.8°C 71% 12.1 mph SW19.5 kmh SW 15.9 mph25.6 kmh 29.98 in1015.2 mb 0.00 in0.0 mm 0.00 in0.0 mm 0.15 in3.8 mm
02:04 PM 57.2°F14.0°C 47.9°F8.8°C 71% 12.1 mph SW19.5 kmh SW 15.9 mph25.6 kmh 29.97 in1014.9 mb 0.00 in0.0 mm 0.00 in0.0 mm 0.15 in3.8 mm
02:02 PM 57.2°F14.0°C 47.9°F8.8°C 71% 12.1 mph SW19.5 kmh SW 15.9 mph25.6 kmh 29.97 in1014.9 mb 0.00 in0.0 mm 0.00 in0.0 mm 0.15 in3.8 mm
02:01 PM 57.2°F14.0°C 47.9°F8.8°C 71% 12.1 mph SW19.5 kmh SW 15.9 mph25.6 kmh 29.98 in1015.2 mb 0.00 in0.0 mm 0.00 in0.0 mm 0.15 in3.8 mm
01:59 PM 57.2°F14.0°C 47.9°F8.8°C 71% 11.4 mph SW18.3 kmh SW 16.8 mph27.0 kmh 29.98 in1015.2 mb 0.00 in0.0 mm 0.00 in0.0 mm 0.15 in3.8 mm
01:58 PM 57.2°F14.0°C 47.9°F8.8°C 71% 5.4 mph W8.7 kmh W 7.6 mph12.2 kmh 29.98 in1015.2 mb 0.00 in0.0 mm 0.00 in0.0 mm 0.15 in3.8 mm
01:56 PM 57.2°F14.0°C 47.9°F8.8°C 71% 5.4 mph W8.7 kmh W 7.6 mph12.2 kmh 29.98 in1015.2 mb 0.00 in0.0 mm 0.00 in0.0 mm 0.15 in3.8 mm
01:55 PM 57.0°F13.9°C 47.7°F8.7°C 71% 13.7 mph NW22.0 kmh NW 15.9 mph25.6 kmh 29.98 in1015.2 mb 0.00 in0.0 mm 0.00 in0.0 mm 0.15 in3.8 mm
01:53 PM 57.0°F13.9°C 47.7°F8.7°C 71% 9.2 mph W14.8 kmh W 16.8 mph27.0 kmh 29.98 in1015.2 mb 0.00 in0.0 mm 0.00 in0.0 mm 0.15 in3.8 mm
01:51 PM 57.0°F13.9°C 47.7°F8.7°C 71% 9.8 mph SW15.8 kmh SW 15.9 mph25.6 kmh 29.98 in1015.2 mb 0.00 in0.0 mm 0.00 in0.0 mm 0.15 in3.8 mm
01:50 PM 57.0°F13.9°C 47.7°F8.7°C 71% 9.8 mph SW15.8 kmh SW 15.9 mph25.6 kmh 29.98 in1015.2 mb 0.00 in0.0 mm 0.00 in0.0 mm 0.15 in3.8 mm
01:49 PM 57.0°F13.9°C 47.7°F8.7°C 71% 11.4 mph NW18.3 kmh NW 16.8 mph27.0 kmh 29.98 in1015.2 mb 0.00 in0.0 mm 0.00 in0.0 mm 0.15 in3.8 mm
01:47 PM 57.0°F13.9°C 47.7°F8.7°C 71% 12.1 mph SW19.5 kmh SW 14.5 mph23.3 kmh 29.98 in1015.2 mb 0.00 in0.0 mm 0.00 in0.0 mm 0.15 in3.8 mm
01:45 PM 57.0°F13.9°C 47.7°F8.7°C 71% 10.7 mph W17.2 kmh W 15.2 mph24.5 kmh 29.98 in1015.2 mb 0.00 in0.0 mm 0.00 in0.0 mm 0.15 in3.8 mm
01:44 PM 57.0°F13.9°C 47.7°F8.7°C 71% 10.7 mph W17.2 kmh W 15.2 mph24.5 kmh 29.98 in1015.2 mb 0.00 in0.0 mm 0.00 in0.0 mm 0.15 in3.8 mm
01:42 PM 57.0°F13.9°C 47.7°F8.7°C 71% 10.7 mph NW17.2 kmh NW 13.7 mph22.0 kmh 29.99 in1015.6 mb 0.00 in0.0 mm 0.00 in0.0 mm 0.15 in3.8 mm
01:41 PM 57.0°F13.9°C 47.7°F8.7°C 71% 7.6 mph SW12.2 kmh SW 11.4 mph18.3 kmh 29.98 in1015.2 mb 0.00 in0.0 mm 0.00 in0.0 mm 0.15 in3.8 mm
01:39 PM 56.8°F13.8°C 47.5°F8.6°C 71% 13.7 mph SW22.0 kmh SW 16.8 mph27.0 kmh 29.99 in1015.6 mb 0.00 in0.0 mm 0.00 in0.0 mm 0.15 in3.8 mm
01:38 PM 56.8°F13.8°C 47.5°F8.6°C 71% 13.7 mph SW22.0 kmh SW 16.8 mph27.0 kmh 29.99 in1015.6 mb 0.00 in0.0 mm 0.00 in0.0 mm 0.15 in3.8 mm
01:36 PM 56.8°F13.8°C 47.5°F8.6°C 71% 9.2 mph W14.8 kmh W 15.9 mph25.6 kmh 29.99 in1015.6 mb 0.00 in0.0 mm 0.00 in0.0 mm 0.15 in3.8 mm
01:35 PM 56.8°F13.8°C 47.9°F8.8°C 72% 10.7 mph W17.2 kmh W 14.5 mph23.3 kmh 29.99 in1015.6 mb 0.00 in0.0 mm 0.00 in0.0 mm 0.15 in3.8 mm
01:33 PM 56.8°F13.8°C 47.9°F8.8°C 72% 9.2 mph S14.8 kmh S 14.5 mph23.3 kmh 29.99 in1015.6 mb 0.00 in0.0 mm 0.00 in0.0 mm 0.15 in3.8 mm
01:32 PM 56.8°F13.8°C 47.9°F8.8°C 72% 9.2 mph S14.8 kmh S 14.5 mph23.3 kmh 29.99 in1015.6 mb 0.00 in0.0 mm 0.00 in0.0 mm 0.15 in3.8 mm
01:30 PM 56.8°F13.8°C 47.5°F8.6°C 71% 6.0 mph S9.7 kmh S 9.8 mph15.8 kmh 29.99 in1015.6 mb 0.00 in0.0 mm 0.00 in0.0 mm 0.15 in3.8 mm
01:29 PM 56.7°F13.7°C 47.4°F8.6°C 71% 6.9 mph NW11.1 kmh NW 11.4 mph18.3 kmh 29.99 in1015.6 mb 0.00 in0.0 mm 0.00 in0.0 mm 0.15 in3.8 mm
01:27 PM 56.7°F13.7°C 47.4°F8.6°C 71% 7.6 mph W12.2 kmh W 11.4 mph18.3 kmh 29.99 in1015.6 mb 0.00 in0.0 mm 0.00 in0.0 mm 0.15 in3.8 mm
01:26 PM 56.7°F13.7°C 47.4°F8.6°C 71% 7.6 mph W12.2 kmh W 11.4 mph18.3 kmh 29.99 in1015.6 mb 0.00 in0.0 mm 0.00 in0.0 mm 0.15 in3.8 mm
01:24 PM 56.7°F13.7°C 47.4°F8.6°C 71% 3.8 mph W6.1 kmh W 5.4 mph8.7 kmh 29.99 in1015.6 mb 0.00 in0.0 mm 0.00 in0.0 mm 0.15 in3.8 mm
01:23 PM 56.7°F13.7°C 47.4°F8.6°C 71% 4.5 mph W7.2 kmh W 7.6 mph12.2 kmh 30.00 in1015.9 mb 0.00 in0.0 mm 0.00 in0.0 mm 0.15 in3.8 mm
01:21 PM 56.7°F13.7°C 47.4°F8.6°C 71% 7.6 mph W12.2 kmh W 12.1 mph19.5 kmh 29.99 in1015.6 mb 0.00 in0.0 mm 0.00 in0.0 mm 0.15 in3.8 mm
01:20 PM 56.7°F13.7°C 47.4°F8.6°C 71% 7.6 mph W12.2 kmh W 12.1 mph19.5 kmh 29.99 in1015.6 mb 0.00 in0.0 mm 0.00 in0.0 mm 0.15 in3.8 mm
01:18 PM 56.7°F13.7°C 47.4°F8.6°C 71% 8.3 mph W13.4 kmh W 11.4 mph18.3 kmh 30.00 in1015.9 mb 0.00 in0.0 mm 0.00 in0.0 mm 0.15 in3.8 mm
01:17 PM 56.7°F13.7°C 47.4°F8.6°C 71% 4.5 mph WSW7.2 kmh WSW 6.9 mph11.1 kmh 30.00 in1015.9 mb 0.00 in0.0 mm 0.00 in0.0 mm 0.15 in3.8 mm
01:15 PM 56.7°F13.7°C 47.4°F8.6°C 71% 7.6 mph S12.2 kmh S 10.7 mph17.2 kmh 30.00 in1015.9 mb 0.00 in0.0 mm 0.00 in0.0 mm 0.15 in3.8 mm
01:14 PM 56.7°F13.7°C 47.4°F8.6°C 71% 7.6 mph S12.2 kmh S 10.7 mph17.2 kmh 30.00 in1015.9 mb 0.00 in0.0 mm 0.00 in0.0 mm 0.15 in3.8 mm
01:12 PM 56.7°F13.7°C 47.4°F8.6°C 71% 6.9 mph W11.1 kmh W 9.8 mph15.8 kmh 30.00 in1015.9 mb 0.00 in0.0 mm 0.00 in0.0 mm 0.15 in3.8 mm
01:11 PM 56.7°F13.7°C 47.4°F8.6°C 71% 6.0 mph NW9.7 kmh NW 8.3 mph13.4 kmh 30.00 in1015.9 mb 0.00 in0.0 mm 0.00 in0.0 mm 0.15 in3.8 mm
01:09 PM 56.8°F13.8°C 47.5°F8.6°C 71% 8.3 mph W13.4 kmh W 10.7 mph17.2 kmh 30.01 in1016.3 mb 0.00 in0.0 mm 0.00 in0.0 mm 0.15 in3.8 mm
01:08 PM 56.8°F13.8°C 47.5°F8.6°C 71% 8.3 mph W13.4 kmh W 10.7 mph17.2 kmh 30.01 in1016.3 mb 0.00 in0.0 mm 0.00 in0.0 mm 0.15 in3.8 mm
01:06 PM 56.8°F13.8°C 47.5°F8.6°C 71% 9.8 mph W15.8 kmh W 15.2 mph24.5 kmh 30.00 in1015.9 mb 0.00 in0.0 mm 0.00 in0.0 mm 0.15 in3.8 mm
01:05 PM 56.8°F13.8°C 47.5°F8.6°C 71% 9.8 mph W15.8 kmh W 15.2 mph24.5 kmh 30.01 in1016.3 mb 0.00 in0.0 mm 0.00 in0.0 mm 0.15 in3.8 mm
01:03 PM 56.8°F13.8°C 47.5°F8.6°C 71% 9.8 mph W15.8 kmh W 15.2 mph24.5 kmh 30.01 in1016.3 mb 0.00 in0.0 mm 0.00 in0.0 mm 0.15 in3.8 mm
01:02 PM 56.8°F13.8°C 47.5°F8.6°C 71% 9.8 mph W15.8 kmh W 15.2 mph24.5 kmh 30.01 in1016.3 mb 0.00 in0.0 mm 0.00 in0.0 mm 0.15 in3.8 mm
01:00 PM 56.8°F13.8°C 47.5°F8.6°C 71% 9.8 mph W15.8 kmh W 15.2 mph24.5 kmh 30.01 in1016.3 mb 0.00 in0.0 mm 0.00 in0.0 mm 0.15 in3.8 mm
12:59 PM 56.8°F13.8°C 47.5°F8.6°C 71% 9.2 mph W14.8 kmh W 12.1 mph19.5 kmh 30.01 in1016.3 mb 0.00 in0.0 mm 0.00 in0.0 mm 0.15 in3.8 mm
12:57 PM 56.8°F13.8°C 47.5°F8.6°C 71% 9.2 mph SW14.8 kmh SW 13.0 mph20.9 kmh 30.01 in1016.3 mb 0.00 in0.0 mm 0.00 in0.0 mm 0.15 in3.8 mm
12:56 PM 56.8°F13.8°C 47.5°F8.6°C 71% 5.4 mph W8.7 kmh W 9.2 mph14.8 kmh 30.01 in1016.3 mb 0.00 in0.0 mm 0.00 in0.0 mm 0.15 in3.8 mm
12:54 PM 56.8°F13.8°C 47.5°F8.6°C 71% 5.4 mph W8.7 kmh W 9.2 mph14.8 kmh 30.01 in1016.3 mb 0.00 in0.0 mm 0.00 in0.0 mm 0.15 in3.8 mm
12:53 PM 56.8°F13.8°C 47.5°F8.6°C 71% 9.2 mph NW14.8 kmh NW 11.4 mph18.3 kmh 30.01 in1016.3 mb 0.00 in0.0 mm 0.00 in0.0 mm 0.15 in3.8 mm
12:51 PM 56.7°F13.7°C 47.0°F8.3°C 70% 6.0 mph W9.7 kmh W 8.3 mph13.4 kmh 30.01 in1016.3 mb 0.00 in0.0 mm 0.00 in0.0 mm 0.15 in3.8 mm
12:50 PM 56.7°F13.7°C 47.0°F8.3°C 70% 11.4 mph SW18.3 kmh SW 17.5 mph28.2 kmh 30.01 in1016.3 mb 0.00 in0.0 mm 0.00 in0.0 mm 0.15 in3.8 mm
12:48 PM 56.7°F13.7°C 47.0°F8.3°C 70% 11.4 mph SW18.3 kmh SW 17.5 mph28.2 kmh 30.01 in1016.3 mb 0.00 in0.0 mm 0.00 in0.0 mm 0.15 in3.8 mm
12:47 PM 56.8°F13.8°C 47.5°F8.6°C 71% 12.1 mph SW19.5 kmh SW 14.5 mph23.3 kmh 30.01 in1016.3 mb 0.00 in0.0 mm 0.00 in0.0 mm 0.15 in3.8 mm
12:45 PM 56.8°F13.8°C 47.5°F8.6°C 71% 9.2 mph WSW14.8 kmh WSW 11.4 mph18.3 kmh 30.01 in1016.3 mb 0.00 in0.0 mm 0.00 in0.0 mm 0.15 in3.8 mm
12:43 PM 56.8°F13.8°C 47.2°F8.4°C 70% 8.3 mph 13.4 kmh 13.0 mph20.9 kmh 30.02 in1016.6 mb 0.00 in0.0 mm 0.00 in0.0 mm 0.15 in3.8 mm
12:42 PM 56.8°F13.8°C 47.2°F8.4°C 70% 8.3 mph 13.4 kmh 13.0 mph20.9 kmh 30.02 in1016.6 mb 0.00 in0.0 mm 0.00 in0.0 mm 0.15 in3.8 mm
12:40 PM 56.7°F13.7°C 47.0°F8.3°C 70% 14.5 mph SW23.3 kmh SW 20.6 mph33.2 kmh 30.02 in1016.6 mb 0.00 in0.0 mm 0.00 in0.0 mm 0.15 in3.8 mm
12:39 PM 56.7°F13.7°C 47.0°F8.3°C 70% 9.8 mph W15.8 kmh W 13.0 mph20.9 kmh 30.02 in1016.6 mb 0.00 in0.0 mm 0.00 in0.0 mm 0.15 in3.8 mm
12:37 PM 56.7°F13.7°C 47.0°F8.3°C 70% 10.7 mph W17.2 kmh W 13.0 mph20.9 kmh 30.02 in1016.6 mb 0.00 in0.0 mm 0.00 in0.0 mm 0.15 in3.8 mm
12:36 PM 56.7°F13.7°C 47.0°F8.3°C 70% 10.7 mph W17.2 kmh W 13.0 mph20.9 kmh 30.02 in1016.6 mb 0.00 in0.0 mm 0.00 in0.0 mm 0.15 in3.8 mm
12:34 PM 56.7°F13.7°C 47.0°F8.3°C 70% 9.8 mph NW15.8 kmh NW 13.7 mph22.0 kmh 30.02 in1016.6 mb 0.00 in0.0 mm 0.00 in0.0 mm 0.15 in3.8 mm
12:33 PM 56.7°F13.7°C 47.0°F8.3°C 70% 8.3 mph NW13.4 kmh NW 11.4 mph18.3 kmh 30.02 in1016.6 mb 0.00 in0.0 mm 0.00 in0.0 mm 0.15 in3.8 mm
12:31 PM 56.7°F13.7°C 47.0°F8.3°C 70% 6.9 mph SW11.1 kmh SW 9.2 mph14.8 kmh 30.02 in1016.6 mb 0.00 in0.0 mm 0.00 in0.0 mm 0.15 in3.8 mm
12:30 PM 56.7°F13.7°C 47.0°F8.3°C 70% 6.9 mph SW11.1 kmh SW 9.2 mph14.8 kmh 30.02 in1016.6 mb 0.00 in0.0 mm 0.00 in0.0 mm 0.15 in3.8 mm
12:28 PM 56.7°F13.7°C 47.0°F8.3°C 70% 5.4 mph SW8.7 kmh SW 7.6 mph12.2 kmh 30.02 in1016.6 mb 0.00 in0.0 mm 0.00 in0.0 mm 0.15 in3.8 mm
12:27 PM 56.7°F13.7°C 47.0°F8.3°C 70% 7.6 mph W12.2 kmh W 9.8 mph15.8 kmh 30.02 in1016.6 mb 0.00 in0.0 mm 0.00 in0.0 mm 0.15 in3.8 mm
12:25 PM 56.7°F13.7°C 47.0°F8.3°C 70% 7.6 mph S12.2 kmh S 9.8 mph15.8 kmh 30.02 in1016.6 mb 0.00 in0.0 mm 0.00 in0.0 mm 0.15 in3.8 mm
12:24 PM 56.7°F13.7°C 47.0°F8.3°C 70% 7.6 mph S12.2 kmh S 9.8 mph15.8 kmh 30.02 in1016.6 mb 0.00 in0.0 mm 0.00 in0.0 mm 0.15 in3.8 mm
12:22 PM 56.7°F13.7°C 47.0°F8.3°C 70% 9.2 mph W14.8 kmh W 11.4 mph18.3 kmh 30.02 in1016.6 mb 0.00 in0.0 mm 0.00 in0.0 mm 0.15 in3.8 mm
12:21 PM 56.7°F13.7°C 47.0°F8.3°C 70% 8.3 mph NW13.4 kmh NW 12.1 mph19.5 kmh 30.03 in1016.9 mb 0.00 in0.0 mm 0.00 in0.0 mm 0.15 in3.8 mm
12:19 PM 56.7°F13.7°C 47.0°F8.3°C 70% 6.0 mph WNW9.7 kmh WNW 9.2 mph14.8 kmh 30.03 in1016.9 mb 0.00 in0.0 mm 0.00 in0.0 mm 0.15 in3.8 mm
12:18 PM 56.7°F13.7°C 47.0°F8.3°C 70% 6.0 mph WNW9.7 kmh WNW 9.2 mph14.8 kmh 30.03 in1016.9 mb 0.00 in0.0 mm 0.00 in0.0 mm 0.15 in3.8 mm
12:16 PM 56.7°F13.7°C 47.0°F8.3°C 70% 8.3 mph SW13.4 kmh SW 14.5 mph23.3 kmh 30.03 in1016.9 mb 0.00 in0.0 mm 0.00 in0.0 mm 0.15 in3.8 mm
12:15 PM 56.7°F13.7°C 47.0°F8.3°C 70% 9.2 mph W14.8 kmh W 15.9 mph25.6 kmh 30.03 in1016.9 mb 0.00 in0.0 mm 0.00 in0.0 mm 0.15 in3.8 mm
12:13 PM 56.7°F13.7°C 47.0°F8.3°C 70% 9.2 mph 14.8 kmh 14.5 mph23.3 kmh 30.03 in1016.9 mb 0.00 in0.0 mm 0.00 in0.0 mm 0.15 in3.8 mm
12:12 PM 56.7°F13.7°C 47.0°F8.3°C 70% 9.2 mph 14.8 kmh 14.5 mph23.3 kmh 30.03 in1016.9 mb 0.00 in0.0 mm 0.00 in0.0 mm 0.15 in3.8 mm
12:10 PM 56.7°F13.7°C 47.0°F8.3°C 70% 6.9 mph W11.1 kmh W 12.1 mph19.5 kmh 30.03 in1016.9 mb 0.00 in0.0 mm 0.00 in0.0 mm 0.15 in3.8 mm
12:09 PM 56.5°F13.6°C 46.8°F8.2°C 70% 10.7 mph W17.2 kmh W 15.2 mph24.5 kmh 30.03 in1016.9 mb 0.00 in0.0 mm 0.00 in0.0 mm 0.15 in3.8 mm
12:07 PM 56.5°F13.6°C 46.8°F8.2°C 70% 10.7 mph W17.2 kmh W 13.0 mph20.9 kmh 30.03 in1016.9 mb 0.00 in0.0 mm 0.00 in0.0 mm 0.15 in3.8 mm
12:06 PM 56.5°F13.6°C 46.8°F8.2°C 70% 10.7 mph W17.2 kmh W 13.0 mph20.9 kmh 30.03 in1016.9 mb 0.00 in0.0 mm 0.00 in0.0 mm 0.15 in3.8 mm
12:04 PM 56.5°F13.6°C 46.8°F8.2°C 70% 10.7 mph W17.2 kmh W 13.0 mph20.9 kmh 30.03 in1016.9 mb 0.00 in0.0 mm 0.00 in0.0 mm 0.15 in3.8 mm
12:03 PM 56.5°F13.6°C 46.8°F8.2°C 70% 10.7 mph W17.2 kmh W 13.0 mph20.9 kmh 30.03 in1016.9 mb 0.00 in0.0 mm 0.00 in0.0 mm 0.15 in3.8 mm
12:01 PM 56.5°F13.6°C 46.8°F8.2°C 70% 10.7 mph W17.2 kmh W 13.0 mph20.9 kmh 30.03 in1016.9 mb 0.00 in0.0 mm 0.00 in0.0 mm 0.15 in3.8 mm
12:00 PM 56.5°F13.6°C 46.8°F8.2°C 70% 10.7 mph W17.2 kmh W 13.0 mph20.9 kmh 30.03 in1016.9 mb 0.00 in0.0 mm 0.00 in0.0 mm 0.15 in3.8 mm
11:58 AM 56.5°F13.6°C 46.8°F8.2°C 70% 5.4 mph NW8.7 kmh NW 8.3 mph13.4 kmh 30.04 in1017.3 mb 0.00 in0.0 mm 0.00 in0.0 mm 0.15 in3.8 mm
11:57 AM 56.5°F13.6°C 46.8°F8.2°C 70% 5.4 mph SW8.7 kmh SW 8.3 mph13.4 kmh 30.04 in1017.3 mb 0.00 in0.0 mm 0.00 in0.0 mm 0.15 in3.8 mm
11:55 AM 56.7°F13.7°C 47.0°F8.3°C 70% 9.2 mph NW14.8 kmh NW 13.7 mph22.0 kmh 30.04 in1017.3 mb 0.00 in0.0 mm 0.00 in0.0 mm 0.15 in3.8 mm
11:54 AM 56.7°F13.7°C 47.0°F8.3°C 70% 9.2 mph NW14.8 kmh NW 13.7 mph22.0 kmh 30.04 in1017.3 mb 0.00 in0.0 mm 0.00 in0.0 mm 0.15 in3.8 mm
11:52 AM 56.7°F13.7°C 47.0°F8.3°C 70% 7.6 mph W12.2 kmh W 13.7 mph22.0 kmh 30.04 in1017.3 mb 0.00 in0.0 mm 0.00 in0.0 mm 0.15 in3.8 mm
11:51 AM 56.7°F13.7°C 47.0°F8.3°C 70% 8.3 mph E13.4 kmh E 9.8 mph15.8 kmh 30.04 in1017.3 mb 0.00 in0.0 mm 0.00 in0.0 mm 0.15 in3.8 mm
11:49 AM 56.7°F13.7°C 46.6°F8.1°C 69% 6.9 mph E11.1 kmh E 9.2 mph14.8 kmh 30.04 in1017.3 mb 0.00 in0.0 mm 0.00 in0.0 mm 0.15 in3.8 mm
11:48 AM 56.7°F13.7°C 46.6°F8.1°C 69% 6.9 mph E11.1 kmh E 9.2 mph14.8 kmh 30.04 in1017.3 mb 0.00 in0.0 mm 0.00 in0.0 mm 0.15 in3.8 mm
11:46 AM 56.7°F13.7°C 46.6°F8.1°C 69% 8.3 mph NW13.4 kmh NW 15.2 mph24.5 kmh 30.04 in1017.3 mb 0.00 in0.0 mm 0.00 in0.0 mm 0.15 in3.8 mm
11:45 AM 56.7°F13.7°C 46.6°F8.1°C 69% 11.4 mph W18.3 kmh W 15.9 mph25.6 kmh 30.04 in1017.3 mb 0.00 in0.0 mm 0.00 in0.0 mm 0.15 in3.8 mm
11:43 AM 56.7°F13.7°C 46.6°F8.1°C 69% 8.3 mph NW13.4 kmh NW 11.4 mph18.3 kmh 30.05 in1017.6 mb 0.00 in0.0 mm 0.00 in0.0 mm 0.15 in3.8 mm
11:42 AM 56.7°F13.7°C 46.6°F8.1°C 69% 10.7 mph SW17.2 kmh SW 15.9 mph25.6 kmh 30.05 in1017.6 mb 0.00 in0.0 mm 0.00 in0.0 mm 0.15 in3.8 mm
11:40 AM 56.7°F13.7°C 46.6°F8.1°C 69% 10.7 mph SW17.2 kmh SW 15.9 mph25.6 kmh 30.05 in1017.6 mb 0.00 in0.0 mm 0.00 in0.0 mm 0.15 in3.8 mm
11:39 AM 56.7°F13.7°C 46.2°F7.9°C 68% 11.4 mph S18.3 kmh S 13.7 mph22.0 kmh 30.05 in1017.6 mb 0.00 in0.0 mm 0.00 in0.0 mm 0.15 in3.8 mm
11:37 AM 56.7°F13.7°C 46.2°F7.9°C 68% 9.2 mph NW14.8 kmh NW 11.4 mph18.3 kmh 30.05 in1017.6 mb 0.00 in0.0 mm 0.00 in0.0 mm 0.15 in3.8 mm
11:36 AM 56.7°F13.7°C 46.2°F7.9°C 68% 6.0 mph W9.7 kmh W 7.6 mph12.2 kmh 30.05 in1017.6 mb 0.00 in0.0 mm 0.00 in0.0 mm 0.15 in3.8 mm
11:34 AM 56.7°F13.7°C 46.2°F7.9°C 68% 6.0 mph W9.7 kmh W 7.6 mph12.2 kmh 30.05 in1017.6 mb 0.00 in0.0 mm 0.00 in0.0 mm 0.15 in3.8 mm
11:32 AM 56.7°F13.7°C 46.2°F7.9°C 68% 7.6 mph W12.2 kmh W 10.7 mph17.2 kmh 30.05 in1017.6 mb 0.00 in0.0 mm 0.00 in0.0 mm 0.15 in3.8 mm
11:31 AM 56.7°F13.7°C 45.8°F7.7°C 67% 9.8 mph W15.8 kmh W 13.7 mph22.0 kmh 30.05 in1017.6 mb 0.00 in0.0 mm 0.00 in0.0 mm 0.15 in3.8 mm
11:30 AM 56.7°F13.7°C 45.8°F7.7°C 67% 7.6 mph W12.2 kmh W 12.1 mph19.5 kmh 30.06 in1017.9 mb 0.00 in0.0 mm 0.00 in0.0 mm 0.15 in3.8 mm
11:26 AM 56.7°F13.7°C 45.8°F7.7°C 67% 11.4 mph NW18.3 kmh NW 14.5 mph23.3 kmh 30.06 in1017.9 mb 0.00 in0.0 mm 0.00 in0.0 mm 0.15 in3.8 mm
11:25 AM 56.7°F13.7°C 45.8°F7.7°C 67% 9.8 mph SW15.8 kmh SW 14.5 mph23.3 kmh 30.05 in1017.6 mb 0.00 in0.0 mm 0.00 in0.0 mm 0.15 in3.8 mm
11:23 AM 56.7°F13.7°C 45.8°F7.7°C 67% 9.2 mph NW14.8 kmh NW 13.0 mph20.9 kmh 30.06 in1017.9 mb 0.00 in0.0 mm 0.00 in0.0 mm 0.15 in3.8 mm
11:22 AM 56.7°F13.7°C 45.8°F7.7°C 67% 9.2 mph NW14.8 kmh NW 13.0 mph20.9 kmh 30.06 in1017.9 mb 0.00 in0.0 mm 0.00 in0.0 mm 0.15 in3.8 mm
11:20 AM 56.7°F13.7°C 45.8°F7.7°C 67% 9.8 mph WNW15.8 kmh WNW 13.7 mph22.0 kmh 30.06 in1017.9 mb 0.00 in0.0 mm 0.00 in0.0 mm 0.15 in3.8 mm
11:19 AM 56.7°F13.7°C 45.8°F7.7°C 67% 4.5 mph NW7.2 kmh NW 6.0 mph9.7 kmh 30.06 in1017.9 mb 0.00 in0.0 mm 0.00 in0.0 mm 0.15 in3.8 mm
11:17 AM 56.7°F13.7°C 45.8°F7.7°C 67% 11.4 mph W18.3 kmh W 15.2 mph24.5 kmh 30.06 in1017.9 mb 0.00 in0.0 mm 0.00 in0.0 mm 0.15 in3.8 mm
11:14 AM 56.7°F13.7°C 45.8°F7.7°C 67% 7.6 mph NW12.2 kmh NW 15.9 mph25.6 kmh 30.07 in1018.3 mb 0.00 in0.0 mm 0.00 in0.0 mm 0.15 in3.8 mm
11:13 AM 56.7°F13.7°C 46.2°F7.9°C 68% 9.2 mph W14.8 kmh W 13.7 mph22.0 kmh 30.06 in1017.9 mb 0.00 in0.0 mm 0.00 in0.0 mm 0.15 in3.8 mm
11:11 AM 56.7°F13.7°C 46.2°F7.9°C 68% 7.6 mph W12.2 kmh W 9.8 mph15.8 kmh 30.06 in1017.9 mb 0.00 in0.0 mm 0.00 in0.0 mm 0.15 in3.8 mm
11:10 AM 56.7°F13.7°C 46.2°F7.9°C 68% 7.6 mph W12.2 kmh W 9.8 mph15.8 kmh 30.06 in1017.9 mb 0.00 in0.0 mm 0.00 in0.0 mm 0.15 in3.8 mm
11:08 AM 56.7°F13.7°C 46.2°F7.9°C 68% 6.0 mph SW9.7 kmh SW 8.3 mph13.4 kmh 30.06 in1017.9 mb 0.00 in0.0 mm 0.00 in0.0 mm 0.15 in3.8 mm
11:07 AM 56.7°F13.7°C 45.8°F7.7°C 67% 9.8 mph SW15.8 kmh SW 14.5 mph23.3 kmh 30.07 in1018.3 mb 0.00 in0.0 mm 0.00 in0.0 mm 0.15 in3.8 mm
11:05 AM 56.7°F13.7°C 45.8°F7.7°C 67% 5.4 mph NW8.7 kmh NW 9.2 mph14.8 kmh 30.07 in1018.3 mb 0.00 in0.0 mm 0.00 in0.0 mm 0.15 in3.8 mm
11:04 AM 56.7°F13.7°C 45.8°F7.7°C 67% 5.4 mph NW8.7 kmh NW 9.2 mph14.8 kmh 30.07 in1018.3 mb 0.00 in0.0 mm 0.00 in0.0 mm 0.15 in3.8 mm
11:02 AM 56.7°F13.7°C 45.8°F7.7°C 67% 9.8 mph SW15.8 kmh SW 14.5 mph23.3 kmh 30.07 in1018.3 mb 0.00 in0.0 mm 0.00 in0.0 mm 0.15 in3.8 mm
11:01 AM 56.7°F13.7°C 45.8°F7.7°C 67% 8.3 mph NW13.4 kmh NW 11.4 mph18.3 kmh 30.07 in1018.3 mb 0.00 in0.0 mm 0.00 in0.0 mm 0.15 in3.8 mm
10:59 AM 56.7°F13.7°C 45.8°F7.7°C 67% 7.6 mph NW12.2 kmh NW 11.4 mph18.3 kmh 30.07 in1018.3 mb 0.00 in0.0 mm 0.00 in0.0 mm 0.15 in3.8 mm
10:58 AM 56.7°F13.7°C 45.8°F7.7°C 67% 7.6 mph NW12.2 kmh NW 11.4 mph18.3 kmh 30.07 in1018.3 mb 0.00 in0.0 mm 0.00 in0.0 mm 0.15 in3.8 mm
10:56 AM 56.7°F13.7°C 45.8°F7.7°C 67% 9.8 mph W15.8 kmh W 13.7 mph22.0 kmh 30.07 in1018.3 mb 0.00 in0.0 mm 0.00 in0.0 mm 0.15 in3.8 mm
10:55 AM 56.7°F13.7°C 45.8°F7.7°C 67% 6.9 mph W11.1 kmh W 10.7 mph17.2 kmh 30.07 in1018.3 mb 0.00 in0.0 mm 0.00 in0.0 mm 0.15 in3.8 mm
10:53 AM 56.7°F13.7°C 45.8°F7.7°C 67% 6.9 mph S11.1 kmh S 9.8 mph15.8 kmh 30.07 in1018.3 mb 0.00 in0.0 mm 0.00 in0.0 mm 0.15 in3.8 mm
10:52 AM 56.7°F13.7°C 45.8°F7.7°C 67% 6.9 mph S11.1 kmh S 9.8 mph15.8 kmh 30.07 in1018.3 mb 0.00 in0.0 mm 0.00 in0.0 mm 0.15 in3.8 mm
10:50 AM 56.7°F13.7°C 45.8°F7.7°C 67% 5.4 mph SW8.7 kmh SW 10.7 mph17.2 kmh 30.07 in1018.3 mb 0.00 in0.0 mm 0.00 in0.0 mm 0.15 in3.8 mm
10:49 AM 56.7°F13.7°C 45.8°F7.7°C 67% 9.8 mph SW15.8 kmh SW 14.5 mph23.3 kmh 30.07 in1018.3 mb 0.00 in0.0 mm 0.00 in0.0 mm 0.15 in3.8 mm
10:48 AM 56.7°F13.7°C 45.8°F7.7°C 67% 9.8 mph SW15.8 kmh SW 14.5 mph23.3 kmh 30.07 in1018.3 mb 0.00 in0.0 mm 0.00 in0.0 mm 0.15 in3.8 mm
10:47 AM 56.7°F13.7°C 46.2°F7.9°C 68% 9.2 mph SW14.8 kmh SW 15.2 mph24.5 kmh 30.07 in1018.3 mb 0.00 in0.0 mm 0.00 in0.0 mm 0.15 in3.8 mm
10:45 AM 56.7°F13.7°C 46.2°F7.9°C 68% 12.1 mph W19.5 kmh W 19.0 mph30.6 kmh 30.07 in1018.3 mb 0.00 in0.0 mm 0.00 in0.0 mm 0.15 in3.8 mm
10:43 AM 56.5°F13.6°C 46.1°F7.8°C 68% 8.3 mph NW13.4 kmh NW 10.7 mph17.2 kmh 30.07 in1018.3 mb 0.00 in0.0 mm 0.00 in0.0 mm 0.15 in3.8 mm
10:42 AM 56.5°F13.6°C 46.1°F7.8°C 68% 8.3 mph NW13.4 kmh NW 10.7 mph17.2 kmh 30.07 in1018.3 mb 0.00 in0.0 mm 0.00 in0.0 mm 0.15 in3.8 mm
10:40 AM 56.5°F13.6°C 46.1°F7.8°C 68% 4.5 mph WNW7.2 kmh WNW 6.9 mph11.1 kmh 30.07 in1018.3 mb 0.00 in0.0 mm 0.00 in0.0 mm 0.15 in3.8 mm
10:39 AM 56.5°F13.6°C 46.1°F7.8°C 68% 7.6 mph W12.2 kmh W 13.0 mph20.9 kmh 30.07 in1018.3 mb 0.00 in0.0 mm 0.00 in0.0 mm 0.15 in3.8 mm
10:37 AM 56.5°F13.6°C 46.1°F7.8°C 68% 8.3 mph SW13.4 kmh SW 12.1 mph19.5 kmh 30.07 in1018.3 mb 0.00 in0.0 mm 0.00 in0.0 mm 0.15 in3.8 mm
10:36 AM 56.5°F13.6°C 46.4°F8.0°C 69% 9.2 mph NW14.8 kmh NW 12.1 mph19.5 kmh 30.07 in1018.3 mb 0.00 in0.0 mm 0.00 in0.0 mm 0.15 in3.8 mm
10:34 AM 56.5°F13.6°C 46.4°F8.0°C 69% 9.2 mph NW14.8 kmh NW 12.1 mph19.5 kmh 30.07 in1018.3 mb 0.00 in0.0 mm 0.00 in0.0 mm 0.15 in3.8 mm
10:33 AM 56.5°F13.6°C 46.4°F8.0°C 69% 5.4 mph WNW8.7 kmh WNW 8.3 mph13.4 kmh 30.07 in1018.3 mb 0.00 in0.0 mm 0.00 in0.0 mm 0.15 in3.8 mm
10:31 AM 56.5°F13.6°C 46.4°F8.0°C 69% 10.7 mph W17.2 kmh W 13.7 mph22.0 kmh 30.07 in1018.3 mb 0.00 in0.0 mm 0.00 in0.0 mm 0.15 in3.8 mm
10:30 AM 56.3°F13.5°C 46.3°F7.9°C 69% 9.8 mph 15.8 kmh 13.7 mph22.0 kmh 30.07 in1018.3 mb 0.00 in0.0 mm 0.00 in0.0 mm 0.15 in3.8 mm
10:28 AM 56.3°F13.5°C 46.3°F7.9°C 69% 9.8 mph 15.8 kmh 13.7 mph22.0 kmh 30.07 in1018.3 mb 0.00 in0.0 mm 0.00 in0.0 mm 0.15 in3.8 mm
10:27 AM 56.3°F13.5°C 46.3°F7.9°C 69% 7.6 mph SW12.2 kmh SW 12.1 mph19.5 kmh 30.07 in1018.3 mb 0.00 in0.0 mm 0.00 in0.0 mm 0.15 in3.8 mm
10:25 AM 56.3°F13.5°C 46.3°F7.9°C 69% 9.8 mph NW15.8 kmh NW 13.0 mph20.9 kmh 30.07 in1018.3 mb 0.00 in0.0 mm 0.00 in0.0 mm 0.15 in3.8 mm
10:23 AM 56.3°F13.5°C 46.6°F8.1°C 70% 8.3 mph W13.4 kmh W 11.4 mph18.3 kmh 30.07 in1018.3 mb 0.00 in0.0 mm 0.00 in0.0 mm 0.15 in3.8 mm
10:22 AM 56.3°F13.5°C 46.6°F8.1°C 70% 8.3 mph W13.4 kmh W 11.4 mph18.3 kmh 30.07 in1018.3 mb 0.00 in0.0 mm 0.00 in0.0 mm 0.15 in3.8 mm
10:20 AM 56.3°F13.5°C 46.6°F8.1°C 70% 9.8 mph W15.8 kmh W 13.7 mph22.0 kmh 30.07 in1018.3 mb 0.00 in0.0 mm 0.00 in0.0 mm 0.15 in3.8 mm
10:19 AM 56.3°F13.5°C 46.6°F8.1°C 70% 10.7 mph SW17.2 kmh SW 15.2 mph24.5 kmh 30.07 in1018.3 mb 0.00 in0.0 mm 0.00 in0.0 mm 0.15 in3.8 mm
10:17 AM 56.3°F13.5°C 46.6°F8.1°C 70% 7.6 mph W12.2 kmh W 9.2 mph14.8 kmh 30.07 in1018.3 mb 0.00 in0.0 mm 0.00 in0.0 mm 0.15 in3.8 mm
10:16 AM 56.3°F13.5°C 46.6°F8.1°C 70% 7.6 mph W12.2 kmh W 9.2 mph14.8 kmh 30.07 in1018.3 mb 0.00 in0.0 mm 0.00 in0.0 mm 0.15 in3.8 mm
10:14 AM 56.3°F13.5°C 46.6°F8.1°C 70% 8.3 mph WNW13.4 kmh WNW 13.0 mph20.9 kmh 30.07 in1018.3 mb 0.00 in0.0 mm 0.00 in0.0 mm 0.15 in3.8 mm
10:13 AM 56.3°F13.5°C 46.6°F8.1°C 70% 7.6 mph NW12.2 kmh NW 10.7 mph17.2 kmh 30.07 in1018.3 mb 0.00 in0.0 mm 0.00 in0.0 mm 0.15 in3.8 mm
10:11 AM 56.3°F13.5°C 46.6°F8.1°C 70% 6.9 mph W11.1 kmh W 10.7 mph17.2 kmh 30.07 in1018.3 mb 0.00 in0.0 mm 0.00 in0.0 mm 0.15 in3.8 mm
10:10 AM 56.3°F13.5°C 46.6°F8.1°C 70% 6.9 mph W11.1 kmh W 10.7 mph17.2 kmh 30.07 in1018.3 mb 0.00 in0.0 mm 0.00 in0.0 mm 0.15 in3.8 mm
10:08 AM 56.3°F13.5°C 46.6°F8.1°C 70% 7.6 mph NE12.2 kmh NE 12.1 mph19.5 kmh 30.07 in1018.3 mb 0.00 in0.0 mm 0.00 in0.0 mm 0.15 in3.8 mm
10:07 AM 56.1°F13.4°C 46.5°F8.1°C 70% 8.3 mph W13.4 kmh W 13.7 mph22.0 kmh 30.07 in1018.3 mb 0.00 in0.0 mm 0.00 in0.0 mm 0.15 in3.8 mm
10:05 AM 56.1°F13.4°C 46.5°F8.1°C 70% 8.3 mph W13.4 kmh W 13.7 mph22.0 kmh 30.07 in1018.3 mb 0.00 in0.0 mm 0.00 in0.0 mm 0.15 in3.8 mm
10:04 AM 56.1°F13.4°C 46.5°F8.1°C 70% 8.3 mph W13.4 kmh W 13.7 mph22.0 kmh 30.07 in1018.3 mb 0.00 in0.0 mm 0.00 in0.0 mm 0.15 in3.8 mm
10:02 AM 56.1°F13.4°C 46.5°F8.1°C 70% 8.3 mph W13.4 kmh W 13.7 mph22.0 kmh 30.07 in1018.3 mb 0.00 in0.0 mm 0.00 in0.0 mm 0.15 in3.8 mm
10:01 AM 56.1°F13.4°C 46.5°F8.1°C 70% 8.3 mph W13.4 kmh W 13.7 mph22.0 kmh 30.07 in1018.3 mb 0.00 in0.0 mm 0.00 in0.0 mm 0.15 in3.8 mm
09:59 AM 56.1°F13.4°C 46.5°F8.1°C 70% 9.2 mph SW14.8 kmh SW 13.7 mph22.0 kmh 30.07 in1018.3 mb 0.00 in0.0 mm 0.00 in0.0 mm 0.15 in3.8 mm
09:58 AM 56.1°F13.4°C 46.5°F8.1°C 70% 9.2 mph SW14.8 kmh SW 13.7 mph22.0 kmh 30.07 in1018.3 mb 0.00 in0.0 mm 0.00 in0.0 mm 0.15 in3.8 mm
09:56 AM 56.1°F13.4°C 46.5°F8.1°C 70% 7.6 mph E12.2 kmh E 13.0 mph20.9 kmh 30.07 in1018.3 mb 0.00 in0.0 mm 0.00 in0.0 mm 0.15 in3.8 mm
09:55 AM 56.3°F13.5°C 46.6°F8.1°C 70% 9.2 mph SW14.8 kmh SW 12.1 mph19.5 kmh 30.07 in1018.3 mb 0.00 in0.0 mm 0.00 in0.0 mm 0.15 in3.8 mm
09:53 AM 56.3°F13.5°C 46.6°F8.1°C 70% 9.8 mph WNW15.8 kmh WNW 13.7 mph22.0 kmh 30.07 in1018.3 mb 0.00 in0.0 mm 0.00 in0.0 mm 0.15 in3.8 mm
09:52 AM 56.3°F13.5°C 46.6°F8.1°C 70% 9.8 mph WNW15.8 kmh WNW 13.7 mph22.0 kmh 30.07 in1018.3 mb 0.00 in0.0 mm 0.00 in0.0 mm 0.15 in3.8 mm
09:50 AM 56.3°F13.5°C 46.6°F8.1°C 70% 6.9 mph W11.1 kmh W 11.4 mph18.3 kmh 30.07 in1018.3 mb 0.00 in0.0 mm 0.00 in0.0 mm 0.15 in3.8 mm
09:49 AM 56.3°F13.5°C 46.6°F8.1°C 70% 6.0 mph NW9.7 kmh NW 8.3 mph13.4 kmh 30.07 in1018.3 mb 0.00 in0.0 mm 0.00 in0.0 mm 0.15 in3.8 mm
09:47 AM 56.3°F13.5°C 46.6°F8.1°C 70% 8.3 mph W13.4 kmh W 14.5 mph23.3 kmh 30.07 in1018.3 mb 0.00 in0.0 mm 0.00 in0.0 mm 0.15 in3.8 mm
09:46 AM 56.3°F13.5°C 46.6°F8.1°C 70% 8.3 mph W13.4 kmh W 14.5 mph23.3 kmh 30.07 in1018.3 mb 0.00 in0.0 mm 0.00 in0.0 mm 0.15 in3.8 mm
09:44 AM 56.3°F13.5°C 46.6°F8.1°C 70% 9.8 mph W15.8 kmh W 13.7 mph22.0 kmh 30.07 in1018.3 mb 0.00 in0.0 mm 0.00 in0.0 mm 0.15 in3.8 mm
09:43 AM 56.3°F13.5°C 46.6°F8.1°C 70% 8.3 mph SW13.4 kmh SW 11.4 mph18.3 kmh 30.07 in1018.3 mb 0.00 in0.0 mm 0.00 in0.0 mm 0.15 in3.8 mm
09:41 AM 56.1°F13.4°C 46.5°F8.1°C 70% 9.2 mph NW14.8 kmh NW 10.7 mph17.2 kmh 30.07 in1018.3 mb 0.00 in0.0 mm 0.00 in0.0 mm 0.15 in3.8 mm
09:40 AM 56.1°F13.4°C 46.5°F8.1°C 70% 9.2 mph NW14.8 kmh NW 10.7 mph17.2 kmh 30.07 in1018.3 mb 0.00 in0.0 mm 0.00 in0.0 mm 0.15 in3.8 mm
09:38 AM 56.1°F13.4°C 46.5°F8.1°C 70% 7.6 mph W12.2 kmh W 9.8 mph15.8 kmh 30.07 in1018.3 mb 0.00 in0.0 mm 0.00 in0.0 mm 0.15 in3.8 mm
09:37 AM 56.1°F13.4°C 46.5°F8.1°C 70% 7.6 mph NW12.2 kmh NW 12.1 mph19.5 kmh 30.07 in1018.3 mb 0.00 in0.0 mm 0.00 in0.0 mm 0.15 in3.8 mm
09:35 AM 55.9°F13.3°C 46.3°F7.9°C 70% 10.7 mph W17.2 kmh W 13.7 mph22.0 kmh 30.07 in1018.3 mb 0.00 in0.0 mm 0.00 in0.0 mm 0.15 in3.8 mm
09:34 AM 55.9°F13.3°C 46.3°F7.9°C 70% 10.7 mph W17.2 kmh W 13.7 mph22.0 kmh 30.07 in1018.3 mb 0.00 in0.0 mm 0.00 in0.0 mm 0.15 in3.8 mm
09:32 AM 55.9°F13.3°C 46.3°F7.9°C 70% 9.2 mph NW14.8 kmh NW 15.9 mph25.6 kmh 30.07 in1018.3 mb 0.00 in0.0 mm 0.00 in0.0 mm 0.15 in3.8 mm
09:31 AM 55.9°F13.3°C 46.3°F7.9°C 70% 5.4 mph NW8.7 kmh NW 8.3 mph13.4 kmh 30.06 in1017.9 mb 0.00 in0.0 mm 0.00 in0.0 mm 0.15 in3.8 mm
09:29 AM 55.9°F13.3°C 46.7°F8.2°C 71% 8.3 mph W13.4 kmh W 9.8 mph15.8 kmh 30.06 in1017.9 mb 0.00 in0.0 mm 0.00 in0.0 mm 0.15 in3.8 mm
09:28 AM 55.9°F13.3°C 46.7°F8.2°C 71% 8.3 mph W13.4 kmh W 9.8 mph15.8 kmh 30.06 in1017.9 mb 0.00 in0.0 mm 0.00 in0.0 mm 0.15 in3.8 mm
09:26 AM 56.1°F13.4°C 46.9°F8.3°C 71% 8.3 mph W13.4 kmh W 12.1 mph19.5 kmh 30.07 in1018.3 mb 0.00 in0.0 mm 0.00 in0.0 mm 0.15 in3.8 mm
09:25 AM 56.1°F13.4°C 46.9°F8.3°C 71% 8.3 mph NW13.4 kmh NW 10.7 mph17.2 kmh 30.07 in1018.3 mb 0.00 in0.0 mm 0.00 in0.0 mm 0.15 in3.8 mm
09:23 AM 56.1°F13.4°C 46.9°F8.3°C 71% 8.3 mph S13.4 kmh S 14.5 mph23.3 kmh 30.06 in1017.9 mb 0.00 in0.0 mm 0.00 in0.0 mm 0.15 in3.8 mm
09:22 AM 56.1°F13.4°C 46.9°F8.3°C 71% 8.3 mph S13.4 kmh S 14.5 mph23.3 kmh 30.06 in1017.9 mb 0.00 in0.0 mm 0.00 in0.0 mm 0.15 in3.8 mm
09:20 AM 56.1°F13.4°C 46.9°F8.3°C 71% 6.9 mph W11.1 kmh W 10.7 mph17.2 kmh 30.06 in1017.9 mb 0.00 in0.0 mm 0.00 in0.0 mm 0.15 in3.8 mm
09:19 AM 56.1°F13.4°C 46.9°F8.3°C 71% 6.9 mph 11.1 kmh 12.1 mph19.5 kmh 30.06 in1017.9 mb 0.00 in0.0 mm 0.00 in0.0 mm 0.15 in3.8 mm
09:17 AM 56.1°F13.4°C 46.9°F8.3°C 71% 7.6 mph SW12.2 kmh SW 10.7 mph17.2 kmh 30.06 in1017.9 mb 0.00 in0.0 mm 0.00 in0.0 mm 0.15 in3.8 mm
09:16 AM 55.9°F13.3°C 46.7°F8.2°C 71% 8.3 mph SW13.4 kmh SW 10.7 mph17.2 kmh 30.06 in1017.9 mb 0.00 in0.0 mm 0.00 in0.0 mm 0.15 in3.8 mm
09:14 AM 55.9°F13.3°C 46.7°F8.2°C 71% 8.3 mph SW13.4 kmh SW 10.7 mph17.2 kmh 30.06 in1017.9 mb 0.00 in0.0 mm 0.00 in0.0 mm 0.15 in3.8 mm
09:13 AM 55.9°F13.3°C 46.7°F8.2°C 71% 7.6 mph W12.2 kmh W 11.4 mph18.3 kmh 30.06 in1017.9 mb 0.00 in0.0 mm 0.00 in0.0 mm 0.15 in3.8 mm
09:11 AM 55.9°F13.3°C 46.7°F8.2°C 71% 13.7 mph NW22.0 kmh NW 17.5 mph28.2 kmh 30.06 in1017.9 mb 0.00 in0.0 mm 0.00 in0.0 mm 0.15 in3.8 mm
09:10 AM 55.9°F13.3°C 46.7°F8.2°C 71% 7.6 mph W12.2 kmh W 11.4 mph18.3 kmh 30.06 in1017.9 mb 0.00 in0.0 mm 0.00 in0.0 mm 0.15 in3.8 mm
09:08 AM 55.9°F13.3°C 46.7°F8.2°C 71% 7.6 mph W12.2 kmh W 11.4 mph18.3 kmh 30.06 in1017.9 mb 0.00 in0.0 mm 0.00 in0.0 mm 0.15 in3.8 mm
09:07 AM 55.6°F13.1°C 46.3°F7.9°C 71% 12.1 mph W19.5 kmh W 18.3 mph29.5 kmh 30.06 in1017.9 mb 0.00 in0.0 mm 0.00 in0.0 mm 0.15 in3.8 mm
09:05 AM 55.6°F13.1°C 46.3°F7.9°C 71% 12.1 mph W19.5 kmh W 18.3 mph29.5 kmh 30.06 in1017.9 mb 0.00 in0.0 mm 0.00 in0.0 mm 0.15 in3.8 mm
09:04 AM 55.6°F13.1°C 46.3°F7.9°C 71% 12.1 mph W19.5 kmh W 18.3 mph29.5 kmh 30.06 in1017.9 mb 0.00 in0.0 mm 0.00 in0.0 mm 0.15 in3.8 mm
09:02 AM 55.6°F13.1°C 46.3°F7.9°C 71% 12.1 mph W19.5 kmh W 18.3 mph29.5 kmh 30.06 in1017.9 mb 0.00 in0.0 mm 0.00 in0.0 mm 0.15 in3.8 mm
09:01 AM 55.6°F13.1°C 46.3°F7.9°C 71% 12.1 mph W19.5 kmh W 18.3 mph29.5 kmh 30.06 in1017.9 mb 0.00 in0.0 mm 0.00 in0.0 mm 0.15 in3.8 mm
08:59 AM 55.4°F13.0°C 46.5°F8.1°C 72% 10.7 mph W17.2 kmh W 15.2 mph24.5 kmh 30.07 in1018.3 mb 0.00 in0.0 mm 0.00 in0.0 mm 0.15 in3.8 mm
08:57 AM 55.4°F13.0°C 46.5°F8.1°C 72% 8.3 mph SW13.4 kmh SW 12.1 mph19.5 kmh 30.07 in1018.3 mb 0.00 in0.0 mm 0.00 in0.0 mm 0.15 in3.8 mm
08:56 AM 55.4°F13.0°C 46.5°F8.1°C 72% 8.3 mph SW13.4 kmh SW 12.1 mph19.5 kmh 30.07 in1018.3 mb 0.00 in0.0 mm 0.00 in0.0 mm 0.15 in3.8 mm
08:54 AM 55.4°F13.0°C 46.5°F8.1°C 72% 8.3 mph NW13.4 kmh NW 14.5 mph23.3 kmh 30.06 in1017.9 mb 0.00 in0.0 mm 0.00 in0.0 mm 0.15 in3.8 mm
08:53 AM 55.2°F12.9°C 46.4°F8.0°C 72% 10.7 mph SW17.2 kmh SW 13.0 mph20.9 kmh 30.06 in1017.9 mb 0.00 in0.0 mm 0.00 in0.0 mm 0.15 in3.8 mm
08:51 AM 55.2°F12.9°C 46.4°F8.0°C 72% 7.6 mph S12.2 kmh S 9.8 mph15.8 kmh 30.07 in1018.3 mb 0.00 in0.0 mm 0.00 in0.0 mm 0.15 in3.8 mm
08:50 AM 55.2°F12.9°C 46.4°F8.0°C 72% 7.6 mph S12.2 kmh S 9.8 mph15.8 kmh 30.07 in1018.3 mb 0.00 in0.0 mm 0.00 in0.0 mm 0.15 in3.8 mm
08:48 AM 55.2°F12.9°C 46.4°F8.0°C 72% 5.4 mph NW8.7 kmh NW 7.6 mph12.2 kmh 30.07 in1018.3 mb 0.00 in0.0 mm 0.00 in0.0 mm 0.15 in3.8 mm
08:47 AM 55.2°F12.9°C 46.4°F8.0°C 72% 9.8 mph 15.8 kmh 15.2 mph24.5 kmh 30.07 in1018.3 mb 0.00 in0.0 mm 0.00 in0.0 mm 0.15 in3.8 mm
08:45 AM 55.2°F12.9°C 46.4°F8.0°C 72% 6.9 mph W11.1 kmh W 9.8 mph15.8 kmh 30.06 in1017.9 mb 0.00 in0.0 mm 0.00 in0.0 mm 0.15 in3.8 mm
08:44 AM 55.2°F12.9°C 46.4°F8.0°C 72% 6.9 mph W11.1 kmh W 9.8 mph15.8 kmh 30.06 in1017.9 mb 0.00 in0.0 mm 0.00 in0.0 mm 0.15 in3.8 mm
08:42 AM 55.0°F12.8°C 46.2°F7.9°C 72% 8.3 mph NW13.4 kmh NW 11.4 mph18.3 kmh 30.06 in1017.9 mb 0.00 in0.0 mm 0.00 in0.0 mm 0.15 in3.8 mm
08:41 AM 55.0°F12.8°C 46.2°F7.9°C 72% 9.8 mph SW15.8 kmh SW 11.4 mph18.3 kmh 30.06 in1017.9 mb 0.00 in0.0 mm 0.00 in0.0 mm 0.15 in3.8 mm
08:39 AM 54.9°F12.7°C 46.4°F8.0°C 73% 11.4 mph W18.3 kmh W 15.2 mph24.5 kmh 30.06 in1017.9 mb 0.00 in0.0 mm 0.00 in0.0 mm 0.15 in3.8 mm
08:38 AM 54.9°F12.7°C 46.4°F8.0°C 73% 11.4 mph W18.3 kmh W 15.2 mph24.5 kmh 30.06 in1017.9 mb 0.00 in0.0 mm 0.00 in0.0 mm 0.15 in3.8 mm
08:36 AM 54.9°F12.7°C 46.4°F8.0°C 73% 7.6 mph W12.2 kmh W 15.2 mph24.5 kmh 30.06 in1017.9 mb 0.00 in0.0 mm 0.00 in0.0 mm 0.15 in3.8 mm
08:35 AM 54.9°F12.7°C 46.4°F8.0°C 73% 7.6 mph NW12.2 kmh NW 9.2 mph14.8 kmh 30.05 in1017.6 mb 0.00 in0.0 mm 0.00 in0.0 mm 0.15 in3.8 mm
08:33 AM 54.7°F12.6°C 46.2°F7.9°C 73% 8.3 mph W13.4 kmh W 13.0 mph20.9 kmh 30.05 in1017.6 mb 0.00 in0.0 mm 0.00 in0.0 mm 0.15 in3.8 mm
08:32 AM 54.7°F12.6°C 46.2°F7.9°C 73% 8.3 mph W13.4 kmh W 13.0 mph20.9 kmh 30.05 in1017.6 mb 0.00 in0.0 mm 0.00 in0.0 mm 0.15 in3.8 mm
08:30 AM 54.7°F12.6°C 46.2°F7.9°C 73% 8.3 mph NW13.4 kmh NW 11.4 mph18.3 kmh 30.06 in1017.9 mb 0.00 in0.0 mm 0.00 in0.0 mm 0.15 in3.8 mm
08:29 AM 54.7°F12.6°C 46.2°F7.9°C 73% 9.2 mph NW14.8 kmh NW 15.2 mph24.5 kmh 30.06 in1017.9 mb 0.00 in0.0 mm 0.00 in0.0 mm 0.15 in3.8 mm
08:27 AM 54.7°F12.6°C 46.2°F7.9°C 73% 11.4 mph WSW18.3 kmh WSW 16.8 mph27.0 kmh 30.06 in1017.9 mb 0.00 in0.0 mm 0.00 in0.0 mm 0.15 in3.8 mm
08:26 AM 54.7°F12.6°C 46.2°F7.9°C 73% 11.4 mph WSW18.3 kmh WSW 16.8 mph27.0 kmh 30.06 in1017.9 mb 0.00 in0.0 mm 0.00 in0.0 mm 0.15 in3.8 mm
08:24 AM 54.7°F12.6°C 46.2°F7.9°C 73% 10.7 mph NW17.2 kmh NW 14.5 mph23.3 kmh 30.05 in1017.6 mb 0.00 in0.0 mm 0.00 in0.0 mm 0.15 in3.8 mm
08:23 AM 54.7°F12.6°C 46.2°F7.9°C 73% 12.1 mph W19.5 kmh W 17.5 mph28.2 kmh 30.06 in1017.9 mb 0.00 in0.0 mm 0.00 in0.0 mm 0.15 in3.8 mm
08:21 AM 54.9°F12.7°C 46.7°F8.2°C 74% 12.1 mph WNW19.5 kmh WNW 20.6 mph33.2 kmh 30.06 in1017.9 mb 0.00 in0.0 mm 0.00 in0.0 mm 0.15 in3.8 mm
08:20 AM 54.9°F12.7°C 46.7°F8.2°C 74% 12.1 mph WNW19.5 kmh WNW 20.6 mph33.2 kmh 30.06 in1017.9 mb 0.00 in0.0 mm 0.00 in0.0 mm 0.15 in3.8 mm
08:18 AM 55.0°F12.8°C 46.5°F8.1°C 73% 7.6 mph W12.2 kmh W 12.1 mph19.5 kmh 30.06 in1017.9 mb 0.00 in0.0 mm 0.00 in0.0 mm 0.15 in3.8 mm
08:17 AM 55.2°F12.9°C 46.7°F8.2°C 73% 5.4 mph NW8.7 kmh NW 8.3 mph13.4 kmh 30.06 in1017.9 mb 0.00 in0.0 mm 0.00 in0.0 mm 0.15 in3.8 mm
08:15 AM 55.2°F12.9°C 46.7°F8.2°C 73% 5.4 mph W8.7 kmh W 8.3 mph13.4 kmh 30.06 in1017.9 mb 0.00 in0.0 mm 0.00 in0.0 mm 0.15 in3.8 mm
08:14 AM 55.2°F12.9°C 46.7°F8.2°C 73% 5.4 mph W8.7 kmh W 8.3 mph13.4 kmh 30.06 in1017.9 mb 0.00 in0.0 mm 0.00 in0.0 mm 0.15 in3.8 mm
08:12 AM 55.4°F13.0°C 46.5°F8.1°C 72% 6.9 mph W11.1 kmh W 7.6 mph12.2 kmh 30.06 in1017.9 mb 0.00 in0.0 mm 0.00 in0.0 mm 0.15 in3.8 mm
08:11 AM 55.4°F13.0°C 46.5°F8.1°C 72% 6.0 mph NW9.7 kmh NW 9.2 mph14.8 kmh 30.06 in1017.9 mb 0.00 in0.0 mm 0.00 in0.0 mm 0.15 in3.8 mm
08:09 AM 55.6°F13.1°C 46.7°F8.2°C 72% 6.0 mph W9.7 kmh W 10.7 mph17.2 kmh 30.06 in1017.9 mb 0.00 in0.0 mm 0.00 in0.0 mm 0.15 in3.8 mm
08:08 AM 55.6°F13.1°C 46.7°F8.2°C 72% 6.0 mph W9.7 kmh W 10.7 mph17.2 kmh 30.06 in1017.9 mb 0.00 in0.0 mm 0.00 in0.0 mm 0.15 in3.8 mm
08:06 AM 55.6°F13.1°C 46.7°F8.2°C 72% 12.1 mph W19.5 kmh W 14.5 mph23.3 kmh 30.06 in1017.9 mb 0.00 in0.0 mm 0.00 in0.0 mm 0.15 in3.8 mm
08:05 AM 55.6°F13.1°C 46.3°F7.9°C 71% 6.0 mph W9.7 kmh W 8.3 mph13.4 kmh 30.06 in1017.9 mb 0.00 in0.0 mm 0.00 in0.0 mm 0.15 in3.8 mm
08:03 AM 55.6°F13.1°C 46.3°F7.9°C 71% 6.0 mph W9.7 kmh W 8.3 mph13.4 kmh 30.06 in1017.9 mb 0.00 in0.0 mm 0.00 in0.0 mm 0.15 in3.8 mm
08:02 AM 55.6°F13.1°C 46.3°F7.9°C 71% 6.0 mph W9.7 kmh W 8.3 mph13.4 kmh 30.06 in1017.9 mb 0.00 in0.0 mm 0.00 in0.0 mm 0.15 in3.8 mm
08:00 AM 55.6°F13.1°C 46.3°F7.9°C 71% 6.0 mph W9.7 kmh W 8.3 mph13.4 kmh 30.06 in1017.9 mb 0.00 in0.0 mm 0.00 in0.0 mm 0.15 in3.8 mm
07:59 AM 55.6°F13.1°C 46.3°F7.9°C 71% 4.5 mph W7.2 kmh W 7.6 mph12.2 kmh 30.06 in1017.9 mb 0.00 in0.0 mm 0.00 in0.0 mm 0.15 in3.8 mm
07:57 AM 55.4°F13.0°C 46.2°F7.9°C 71% 3.8 mph SSW6.1 kmh SSW 5.4 mph8.7 kmh 30.06 in1017.9 mb 0.00 in0.0 mm 0.00 in0.0 mm 0.15 in3.8 mm
07:56 AM 55.4°F13.0°C 46.2°F7.9°C 71% 6.9 mph W11.1 kmh W 8.3 mph13.4 kmh 30.06 in1017.9 mb 0.00 in0.0 mm 0.00 in0.0 mm 0.15 in3.8 mm
07:54 AM 55.4°F13.0°C 46.2°F7.9°C 71% 6.9 mph W11.1 kmh W 8.3 mph13.4 kmh 30.06 in1017.9 mb 0.00 in0.0 mm 0.00 in0.0 mm 0.15 in3.8 mm
07:53 AM 55.4°F13.0°C 46.2°F7.9°C 71% 6.9 mph W11.1 kmh W 9.8 mph15.8 kmh 30.06 in1017.9 mb 0.00 in0.0 mm 0.00 in0.0 mm 0.15 in3.8 mm
07:51 AM 55.4°F13.0°C 46.2°F7.9°C 71% 8.3 mph W13.4 kmh W 13.0 mph20.9 kmh 30.06 in1017.9 mb 0.00 in0.0 mm 0.00 in0.0 mm 0.15 in3.8 mm
07:50 AM 55.4°F13.0°C 46.2°F7.9°C 71% 7.6 mph SW12.2 kmh SW 9.8 mph15.8 kmh 30.06 in1017.9 mb 0.00 in0.0 mm 0.00 in0.0 mm 0.15 in3.8 mm
07:48 AM 55.4°F13.0°C 46.2°F7.9°C 71% 7.6 mph SW12.2 kmh SW 9.8 mph15.8 kmh 30.06 in1017.9 mb 0.00 in0.0 mm 0.00 in0.0 mm 0.15 in3.8 mm
07:47 AM 55.4°F13.0°C 46.2°F7.9°C 71% 6.9 mph SW11.1 kmh SW 8.3 mph13.4 kmh 30.06 in1017.9 mb 0.00 in0.0 mm 0.00 in0.0 mm 0.15 in3.8 mm
07:45 AM 55.4°F13.0°C 46.2°F7.9°C 71% 8.3 mph W13.4 kmh W 13.0 mph20.9 kmh 30.06 in1017.9 mb 0.00 in0.0 mm 0.00 in0.0 mm 0.15 in3.8 mm
07:43 AM 55.4°F13.0°C 46.2°F7.9°C 71% 8.3 mph W13.4 kmh W 12.1 mph19.5 kmh 30.06 in1017.9 mb 0.00 in0.0 mm 0.00 in0.0 mm 0.15 in3.8 mm
07:42 AM 55.4°F13.0°C 46.2°F7.9°C 71% 8.3 mph W13.4 kmh W 12.1 mph19.5 kmh 30.06 in1017.9 mb 0.00 in0.0 mm 0.00 in0.0 mm 0.15 in3.8 mm
07:40 AM 55.4°F13.0°C 46.2°F7.9°C 71% 12.1 mph W19.5 kmh W 15.2 mph24.5 kmh 30.06 in1017.9 mb 0.00 in0.0 mm 0.00 in0.0 mm 0.15 in3.8 mm
07:39 AM 55.4°F13.0°C 46.2°F7.9°C 71% 10.7 mph W17.2 kmh W 14.5 mph23.3 kmh 30.06 in1017.9 mb 0.00 in0.0 mm 0.00 in0.0 mm 0.15 in3.8 mm
07:37 AM 55.4°F13.0°C 46.2°F7.9°C 71% 8.3 mph W13.4 kmh W 12.1 mph19.5 kmh 30.06 in1017.9 mb 0.00 in0.0 mm 0.00 in0.0 mm 0.15 in3.8 mm
07:36 AM 55.4°F13.0°C 46.2°F7.9°C 71% 8.3 mph W13.4 kmh W 12.1 mph19.5 kmh 30.06 in1017.9 mb 0.00 in0.0 mm 0.00 in0.0 mm 0.15 in3.8 mm
07:34 AM 55.4°F13.0°C 46.2°F7.9°C 71% 9.2 mph W14.8 kmh W 11.4 mph18.3 kmh 30.06 in1017.9 mb 0.00 in0.0 mm 0.00 in0.0 mm 0.15 in3.8 mm
07:33 AM 55.4°F13.0°C 46.2°F7.9°C 71% 4.5 mph W7.2 kmh W 6.9 mph11.1 kmh 30.06 in1017.9 mb 0.00 in0.0 mm 0.00 in0.0 mm 0.15 in3.8 mm
07:32 AM 55.4°F13.0°C 45.8°F7.7°C 70% 7.6 mph W12.2 kmh W 9.8 mph15.8 kmh 30.06 in1017.9 mb 0.00 in0.0 mm 0.00 in0.0 mm 0.15 in3.8 mm
07:30 AM 55.4°F13.0°C 45.8°F7.7°C 70% 7.6 mph W12.2 kmh W 9.8 mph15.8 kmh 30.06 in1017.9 mb 0.00 in0.0 mm 0.00 in0.0 mm 0.15 in3.8 mm
07:28 AM 55.4°F13.0°C 45.8°F7.7°C 70% 7.6 mph W12.2 kmh W 10.7 mph17.2 kmh 30.06 in1017.9 mb 0.00 in0.0 mm 0.00 in0.0 mm 0.15 in3.8 mm
07:27 AM 55.4°F13.0°C 45.8°F7.7°C 70% 9.2 mph 14.8 kmh 12.1 mph19.5 kmh 30.06 in1017.9 mb 0.00 in0.0 mm 0.00 in0.0 mm 0.15 in3.8 mm
07:25 AM 55.4°F13.0°C 45.8°F7.7°C 70% 9.8 mph W15.8 kmh W 13.7 mph22.0 kmh 30.06 in1017.9 mb 0.00 in0.0 mm 0.00 in0.0 mm 0.15 in3.8 mm
07:24 AM 55.4°F13.0°C 45.8°F7.7°C 70% 9.8 mph W15.8 kmh W 13.7 mph22.0 kmh 30.06 in1017.9 mb 0.00 in0.0 mm 0.00 in0.0 mm 0.15 in3.8 mm
07:22 AM 55.4°F13.0°C 45.8°F7.7°C 70% 9.2 mph W14.8 kmh W 10.7 mph17.2 kmh 30.06 in1017.9 mb 0.00 in0.0 mm 0.00 in0.0 mm 0.15 in3.8 mm
07:21 AM 55.4°F13.0°C 45.8°F7.7°C 70% 6.9 mph W11.1 kmh W 9.2 mph14.8 kmh 30.06 in1017.9 mb 0.00 in0.0 mm 0.00 in0.0 mm 0.15 in3.8 mm
07:19 AM 55.4°F13.0°C 45.8°F7.7°C 70% 9.8 mph SW15.8 kmh SW 13.7 mph22.0 kmh 30.06 in1017.9 mb 0.00 in0.0 mm 0.00 in0.0 mm 0.15 in3.8 mm
07:18 AM 55.4°F13.0°C 45.8°F7.7°C 70% 9.8 mph SW15.8 kmh SW 13.7 mph22.0 kmh 30.06 in1017.9 mb 0.00 in0.0 mm 0.00 in0.0 mm 0.15 in3.8 mm
07:16 AM 55.4°F13.0°C 45.8°F7.7°C 70% 7.6 mph W12.2 kmh W 13.7 mph22.0 kmh 30.06 in1017.9 mb 0.00 in0.0 mm 0.00 in0.0 mm 0.15 in3.8 mm
07:15 AM 55.2°F12.9°C 45.6°F7.6°C 70% 8.3 mph W13.4 kmh W 12.1 mph19.5 kmh 30.06 in1017.9 mb 0.00 in0.0 mm 0.00 in0.0 mm 0.15 in3.8 mm
07:13 AM 55.2°F12.9°C 45.6°F7.6°C 70% 8.3 mph SW13.4 kmh SW 11.4 mph18.3 kmh 30.06 in1017.9 mb 0.00 in0.0 mm 0.00 in0.0 mm 0.15 in3.8 mm
07:12 AM 55.2°F12.9°C 45.6°F7.6°C 70% 8.3 mph SW13.4 kmh SW 11.4 mph18.3 kmh 30.06 in1017.9 mb 0.00 in0.0 mm 0.00 in0.0 mm 0.15 in3.8 mm
07:10 AM 55.2°F12.9°C 45.6°F7.6°C 70% 6.9 mph SW11.1 kmh SW 9.8 mph15.8 kmh 30.06 in1017.9 mb 0.00 in0.0 mm 0.00 in0.0 mm 0.15 in3.8 mm
07:09 AM 55.2°F12.9°C 45.6°F7.6°C 70% 9.2 mph 14.8 kmh 10.7 mph17.2 kmh 30.06 in1017.9 mb 0.00 in0.0 mm 0.00 in0.0 mm 0.15 in3.8 mm
07:07 AM 55.2°F12.9°C 44.5°F6.9°C 67% 6.9 mph W11.1 kmh W 12.1 mph19.5 kmh 30.06 in1017.9 mb 0.00 in0.0 mm 0.00 in0.0 mm 0.15 in3.8 mm
07:06 AM 55.2°F12.9°C 44.5°F6.9°C 67% 6.9 mph W11.1 kmh W 12.1 mph19.5 kmh 30.06 in1017.9 mb 0.00 in0.0 mm 0.00 in0.0 mm 0.15 in3.8 mm
07:04 AM 55.2°F12.9°C 44.5°F6.9°C 67% 6.9 mph W11.1 kmh W 12.1 mph19.5 kmh 30.06 in1017.9 mb 0.00 in0.0 mm 0.00 in0.0 mm 0.15 in3.8 mm
07:03 AM 55.2°F12.9°C 44.5°F6.9°C 67% 6.9 mph W11.1 kmh W 12.1 mph19.5 kmh 30.06 in1017.9 mb 0.00 in0.0 mm 0.00 in0.0 mm 0.15 in3.8 mm
07:01 AM 55.2°F12.9°C 44.5°F6.9°C 67% 6.9 mph W11.1 kmh W 12.1 mph19.5 kmh 30.06 in1017.9 mb 0.00 in0.0 mm 0.00 in0.0 mm 0.15 in3.8 mm
07:00 AM 55.2°F12.9°C 44.5°F6.9°C 67% 6.9 mph W11.1 kmh W 12.1 mph19.5 kmh 30.06 in1017.9 mb 0.00 in0.0 mm 0.00 in0.0 mm 0.15 in3.8 mm
06:58 AM 55.2°F12.9°C 44.8°F7.1°C 68% 11.4 mph WSW18.3 kmh WSW 16.8 mph27.0 kmh 30.06 in1017.9 mb 0.00 in0.0 mm 0.00 in0.0 mm 0.15 in3.8 mm
06:57 AM 55.2°F12.9°C 44.8°F7.1°C 68% 11.4 mph NW18.3 kmh NW 18.3 mph29.5 kmh 30.06 in1017.9 mb 0.00 in0.0 mm 0.00 in0.0 mm 0.15 in3.8 mm
06:55 AM 55.2°F12.9°C 44.8°F7.1°C 68% 12.1 mph WSW19.5 kmh WSW 15.2 mph24.5 kmh 30.06 in1017.9 mb 0.00 in0.0 mm 0.00 in0.0 mm 0.15 in3.8 mm
06:54 AM 55.2°F12.9°C 44.8°F7.1°C 68% 12.1 mph WSW19.5 kmh WSW 15.2 mph24.5 kmh 30.06 in1017.9 mb 0.00 in0.0 mm 0.00 in0.0 mm 0.15 in3.8 mm
06:52 AM 55.2°F12.9°C 45.2°F7.3°C 69% 7.6 mph W12.2 kmh W 9.8 mph15.8 kmh 30.06 in1017.9 mb 0.00 in0.0 mm 0.00 in0.0 mm 0.15 in3.8 mm
06:49 AM 55.2°F12.9°C 45.2°F7.3°C 69% 8.3 mph W13.4 kmh W 9.8 mph15.8 kmh 30.06 in1017.9 mb 0.00 in0.0 mm 0.00 in0.0 mm 0.15 in3.8 mm
06:48 AM 55.2°F12.9°C 45.2°F7.3°C 69% 8.3 mph W13.4 kmh W 9.8 mph15.8 kmh 30.06 in1017.9 mb 0.00 in0.0 mm 0.00 in0.0 mm 0.15 in3.8 mm
06:46 AM 55.2°F12.9°C 45.6°F7.6°C 70% 11.4 mph W18.3 kmh W 15.9 mph25.6 kmh 30.06 in1017.9 mb 0.00 in0.0 mm 0.00 in0.0 mm 0.15 in3.8 mm
06:45 AM 55.2°F12.9°C 45.6°F7.6°C 70% 14.5 mph SE23.3 kmh SE 19.7 mph31.7 kmh 30.06 in1017.9 mb 0.00 in0.0 mm 0.00 in0.0 mm 0.15 in3.8 mm
06:43 AM 55.0°F12.8°C 45.4°F7.4°C 70% 10.7 mph S17.2 kmh S 13.7 mph22.0 kmh 30.06 in1017.9 mb 0.00 in0.0 mm 0.00 in0.0 mm 0.15 in3.8 mm
06:42 AM 55.0°F12.8°C 45.4°F7.4°C 70% 8.3 mph S13.4 kmh S 9.8 mph15.8 kmh 30.06 in1017.9 mb 0.00 in0.0 mm 0.00 in0.0 mm 0.15 in3.8 mm
06:40 AM 55.0°F12.8°C 45.4°F7.4°C 70% 8.3 mph S13.4 kmh S 9.8 mph15.8 kmh 30.06 in1017.9 mb 0.00 in0.0 mm 0.00 in0.0 mm 0.15 in3.8 mm
06:39 AM 55.0°F12.8°C 45.4°F7.4°C 70% 11.4 mph W18.3 kmh W 15.9 mph25.6 kmh 30.06 in1017.9 mb 0.00 in0.0 mm 0.00 in0.0 mm 0.15 in3.8 mm
06:37 AM 55.0°F12.8°C 45.4°F7.4°C 70% 4.5 mph NNW7.2 kmh NNW 9.2 mph14.8 kmh 30.06 in1017.9 mb 0.00 in0.0 mm 0.00 in0.0 mm 0.15 in3.8 mm
06:36 AM 55.0°F12.8°C 45.8°F7.7°C 71% 10.7 mph NW17.2 kmh NW 15.2 mph24.5 kmh 30.06 in1017.9 mb 0.00 in0.0 mm 0.00 in0.0 mm 0.15 in3.8 mm
06:34 AM 55.0°F12.8°C 45.8°F7.7°C 71% 10.7 mph NW17.2 kmh NW 15.2 mph24.5 kmh 30.06 in1017.9 mb 0.00 in0.0 mm 0.00 in0.0 mm 0.15 in3.8 mm
06:33 AM 55.0°F12.8°C 45.8°F7.7°C 71% 9.8 mph NW15.8 kmh NW 12.1 mph19.5 kmh 30.06 in1017.9 mb 0.00 in0.0 mm 0.00 in0.0 mm 0.15 in3.8 mm
06:31 AM 55.0°F12.8°C 45.8°F7.7°C 71% 8.3 mph W13.4 kmh W 12.1 mph19.5 kmh 30.06 in1017.9 mb 0.00 in0.0 mm 0.00 in0.0 mm 0.15 in3.8 mm
06:30 AM 55.0°F12.8°C 45.8°F7.7°C 71% 5.4 mph W8.7 kmh W 6.9 mph11.1 kmh 30.06 in1017.9 mb 0.00 in0.0 mm 0.00 in0.0 mm 0.15 in3.8 mm
06:28 AM 55.0°F12.8°C 45.8°F7.7°C 71% 5.4 mph W8.7 kmh W 6.9 mph11.1 kmh 30.06 in1017.9 mb 0.00 in0.0 mm 0.00 in0.0 mm 0.15 in3.8 mm
06:27 AM 55.0°F12.8°C 45.8°F7.7°C 71% 12.1 mph W19.5 kmh W 15.9 mph25.6 kmh 30.06 in1017.9 mb 0.00 in0.0 mm 0.00 in0.0 mm 0.15 in3.8 mm
06:25 AM 55.0°F12.8°C 45.8°F7.7°C 71% 12.1 mph W19.5 kmh W 13.7 mph22.0 kmh 30.05 in1017.6 mb 0.00 in0.0 mm 0.00 in0.0 mm 0.15 in3.8 mm
06:23 AM 55.0°F12.8°C 45.8°F7.7°C 71% 7.6 mph W12.2 kmh W 10.7 mph17.2 kmh 30.05 in1017.6 mb 0.00 in0.0 mm 0.00 in0.0 mm 0.15 in3.8 mm
06:22 AM 55.0°F12.8°C 45.8°F7.7°C 71% 7.6 mph W12.2 kmh W 10.7 mph17.2 kmh 30.05 in1017.6 mb 0.00 in0.0 mm 0.00 in0.0 mm 0.15 in3.8 mm
06:20 AM 54.9°F12.7°C 46.0°F7.8°C 72% 10.7 mph NW17.2 kmh NW 14.5 mph23.3 kmh 30.06 in1017.9 mb 0.00 in0.0 mm 0.00 in0.0 mm 0.15 in3.8 mm
06:19 AM 54.9°F12.7°C 46.0°F7.8°C 72% 12.1 mph NW19.5 kmh NW 15.9 mph25.6 kmh 30.06 in1017.9 mb 0.00 in0.0 mm 0.00 in0.0 mm 0.15 in3.8 mm
06:17 AM 54.9°F12.7°C 46.0°F7.8°C 72% 8.3 mph W13.4 kmh W 10.7 mph17.2 kmh 30.06 in1017.9 mb 0.00 in0.0 mm 0.00 in0.0 mm 0.15 in3.8 mm
06:16 AM 54.9°F12.7°C 46.0°F7.8°C 72% 8.3 mph W13.4 kmh W 10.7 mph17.2 kmh 30.06 in1017.9 mb 0.00 in0.0 mm 0.00 in0.0 mm 0.15 in3.8 mm
06:14 AM 54.9°F12.7°C 46.0°F7.8°C 72% 8.3 mph 13.4 kmh 12.1 mph19.5 kmh 30.06 in1017.9 mb 0.00 in0.0 mm 0.00 in0.0 mm 0.15 in3.8 mm
06:13 AM 54.9°F12.7°C 46.0°F7.8°C 72% 10.7 mph W17.2 kmh W 13.7 mph22.0 kmh 30.06 in1017.9 mb 0.00 in0.0 mm 0.00 in0.0 mm 0.15 in3.8 mm
06:11 AM 54.9°F12.7°C 46.0°F7.8°C 72% 9.2 mph W14.8 kmh W 12.1 mph19.5 kmh 30.06 in1017.9 mb 0.00 in0.0 mm 0.00 in0.0 mm 0.15 in3.8 mm
06:10 AM 54.9°F12.7°C 46.0°F7.8°C 72% 9.2 mph W14.8 kmh W 12.1 mph19.5 kmh 30.06 in1017.9 mb 0.00 in0.0 mm 0.00 in0.0 mm 0.15 in3.8 mm
06:08 AM 55.0°F12.8°C 46.5°F8.1°C 73% 6.0 mph SW9.7 kmh SW 8.3 mph13.4 kmh 30.06 in1017.9 mb 0.00 in0.0 mm 0.00 in0.0 mm 0.15 in3.8 mm
06:07 AM 55.2°F12.9°C 46.7°F8.2°C 73% 10.7 mph WNW17.2 kmh WNW 14.5 mph23.3 kmh 30.06 in1017.9 mb 0.00 in0.0 mm 0.00 in0.0 mm 0.15 in3.8 mm
06:05 AM 55.0°F12.8°C 46.5°F8.1°C 73% 7.6 mph W12.2 kmh W 11.4 mph18.3 kmh 30.06 in1017.9 mb 0.00 in0.0 mm 0.00 in0.0 mm 0.15 in3.8 mm
06:04 AM 55.0°F12.8°C 46.5°F8.1°C 73% 7.6 mph W12.2 kmh W 11.4 mph18.3 kmh 30.06 in1017.9 mb 0.00 in0.0 mm 0.00 in0.0 mm 0.15 in3.8 mm
06:02 AM 55.0°F12.8°C 46.5°F8.1°C 73% 7.6 mph W12.2 kmh W 11.4 mph18.3 kmh 30.06 in1017.9 mb 0.00 in0.0 mm 0.00 in0.0 mm 0.15 in3.8 mm
06:01 AM 55.0°F12.8°C 46.5°F8.1°C 73% 7.6 mph W12.2 kmh W 11.4 mph18.3 kmh 30.06 in1017.9 mb 0.00 in0.0 mm 0.00 in0.0 mm 0.15 in3.8 mm
05:59 AM 55.0°F12.8°C 46.5°F8.1°C 73% 7.6 mph W12.2 kmh W 13.7 mph22.0 kmh 30.06 in1017.9 mb 0.00 in0.0 mm 0.00 in0.0 mm 0.15 in3.8 mm
05:58 AM 55.0°F12.8°C 46.5°F8.1°C 73% 7.6 mph W12.2 kmh W 13.7 mph22.0 kmh 30.06 in1017.9 mb 0.00 in0.0 mm 0.00 in0.0 mm 0.15 in3.8 mm
05:56 AM 55.0°F12.8°C 46.2°F7.9°C 72% 6.9 mph W11.1 kmh W 11.4 mph18.3 kmh 30.07 in1018.3 mb 0.00 in0.0 mm 0.00 in0.0 mm 0.15 in3.8 mm
05:55 AM 54.9°F12.7°C 46.0°F7.8°C 72% 7.6 mph W12.2 kmh W 9.8 mph15.8 kmh 30.06 in1017.9 mb 0.00 in0.0 mm 0.00 in0.0 mm 0.15 in3.8 mm
05:53 AM 54.9°F12.7°C 46.0°F7.8°C 72% 6.0 mph NW9.7 kmh NW 9.8 mph15.8 kmh 30.06 in1017.9 mb 0.00 in0.0 mm 0.00 in0.0 mm 0.15 in3.8 mm
05:52 AM 54.9°F12.7°C 46.0°F7.8°C 72% 6.0 mph NW9.7 kmh NW 9.8 mph15.8 kmh 30.06 in1017.9 mb 0.00 in0.0 mm 0.00 in0.0 mm 0.15 in3.8 mm
05:50 AM 54.7°F12.6°C 45.8°F7.7°C 72% 5.4 mph NW8.7 kmh NW 6.9 mph11.1 kmh 30.06 in1017.9 mb 0.00 in0.0 mm 0.00 in0.0 mm 0.15 in3.8 mm
05:49 AM 54.7°F12.6°C 45.8°F7.7°C 72% 5.4 mph WNW8.7 kmh WNW 8.3 mph13.4 kmh 30.06 in1017.9 mb 0.00 in0.0 mm 0.00 in0.0 mm 0.15 in3.8 mm
05:47 AM 54.7°F12.6°C 45.8°F7.7°C 72% 6.0 mph NW9.7 kmh NW 9.2 mph14.8 kmh 30.06 in1017.9 mb 0.00 in0.0 mm 0.00 in0.0 mm 0.15 in3.8 mm
05:46 AM 54.7°F12.6°C 45.8°F7.7°C 72% 6.0 mph NW9.7 kmh NW 9.2 mph14.8 kmh 30.06 in1017.9 mb 0.00 in0.0 mm 0.00 in0.0 mm 0.15 in3.8 mm
05:44 AM 54.7°F12.6°C 45.8°F7.7°C 72% 4.5 mph SW7.2 kmh SW 6.0 mph9.7 kmh 30.06 in1017.9 mb 0.00 in0.0 mm 0.00 in0.0 mm 0.15 in3.8 mm
05:43 AM 54.7°F12.6°C 45.5°F7.5°C 71% 3.8 mph W6.1 kmh W 5.4 mph8.7 kmh 30.06 in1017.9 mb 0.00 in0.0 mm 0.00 in0.0 mm 0.15 in3.8 mm
05:41 AM 54.7°F12.6°C 45.5°F7.5°C 71% 6.0 mph WSW9.7 kmh WSW 9.2 mph14.8 kmh 30.07 in1018.3 mb 0.00 in0.0 mm 0.00 in0.0 mm 0.15 in3.8 mm
05:40 AM 54.7°F12.6°C 45.5°F7.5°C 71% 6.0 mph WSW9.7 kmh WSW 9.2 mph14.8 kmh 30.07 in1018.3 mb 0.00 in0.0 mm 0.00 in0.0 mm 0.15 in3.8 mm
05:38 AM 54.7°F12.6°C 45.5°F7.5°C 71% 6.9 mph S11.1 kmh S 9.8 mph15.8 kmh 30.06 in1017.9 mb 0.00 in0.0 mm 0.00 in0.0 mm 0.15 in3.8 mm
05:37 AM 54.7°F12.6°C 45.5°F7.5°C 71% 3.8 mph SW6.1 kmh SW 6.0 mph9.7 kmh 30.06 in1017.9 mb 0.00 in0.0 mm 0.00 in0.0 mm 0.15 in3.8 mm
05:35 AM 54.7°F12.6°C 45.5°F7.5°C 71% 4.5 mph NW7.2 kmh NW 6.0 mph9.7 kmh 30.07 in1018.3 mb 0.00 in0.0 mm 0.00 in0.0 mm 0.15 in3.8 mm
05:34 AM 54.7°F12.6°C 45.5°F7.5°C 71% 4.5 mph NW7.2 kmh NW 6.0 mph9.7 kmh 30.07 in1018.3 mb 0.00 in0.0 mm 0.00 in0.0 mm 0.15 in3.8 mm
05:32 AM 54.7°F12.6°C 45.5°F7.5°C 71% 5.4 mph NW8.7 kmh NW 7.6 mph12.2 kmh 30.06 in1017.9 mb 0.00 in0.0 mm 0.00 in0.0 mm 0.15 in3.8 mm
05:31 AM 54.7°F12.6°C 45.5°F7.5°C 71% 6.0 mph NW9.7 kmh NW 8.3 mph13.4 kmh 30.07 in1018.3 mb 0.00 in0.0 mm 0.00 in0.0 mm 0.15 in3.8 mm
05:29 AM 54.7°F12.6°C 45.5°F7.5°C 71% 6.0 mph S9.7 kmh S 9.2 mph14.8 kmh 30.07 in1018.3 mb 0.00 in0.0 mm 0.00 in0.0 mm 0.15 in3.8 mm
05:28 AM 54.7°F12.6°C 45.5°F7.5°C 71% 2.2 mph W3.5 kmh W 3.8 mph6.1 kmh 30.07 in1018.3 mb 0.00 in0.0 mm 0.00 in0.0 mm 0.15 in3.8 mm
05:26 AM 54.7°F12.6°C 45.5°F7.5°C 71% 2.2 mph W3.5 kmh W 3.8 mph6.1 kmh 30.07 in1018.3 mb 0.00 in0.0 mm 0.00 in0.0 mm 0.15 in3.8 mm
05:25 AM 54.7°F12.6°C 45.5°F7.5°C 71% 5.4 mph W8.7 kmh W 6.9 mph11.1 kmh 30.07 in1018.3 mb 0.00 in0.0 mm 0.00 in0.0 mm 0.15 in3.8 mm
05:23 AM 54.7°F12.6°C 45.5°F7.5°C 71% 7.6 mph W12.2 kmh W 13.0 mph20.9 kmh 30.07 in1018.3 mb 0.00 in0.0 mm 0.00 in0.0 mm 0.15 in3.8 mm
05:22 AM 54.7°F12.6°C 45.5°F7.5°C 71% 5.4 mph W8.7 kmh W 7.6 mph12.2 kmh 30.07 in1018.3 mb 0.00 in0.0 mm 0.00 in0.0 mm 0.15 in3.8 mm
05:20 AM 54.7°F12.6°C 45.5°F7.5°C 71% 5.4 mph W8.7 kmh W 7.6 mph12.2 kmh 30.07 in1018.3 mb 0.00 in0.0 mm 0.00 in0.0 mm 0.15 in3.8 mm
05:19 AM 54.7°F12.6°C 45.5°F7.5°C 71% 6.9 mph NW11.1 kmh NW 9.8 mph15.8 kmh 30.07 in1018.3 mb 0.00 in0.0 mm 0.00 in0.0 mm 0.15 in3.8 mm
05:17 AM 54.7°F12.6°C 45.5°F7.5°C 71% 5.4 mph SW8.7 kmh SW 7.6 mph12.2 kmh 30.07 in1018.3 mb 0.00 in0.0 mm 0.00 in0.0 mm 0.15 in3.8 mm
05:16 AM 54.5°F12.5°C 44.9°F7.2°C 70% 6.9 mph W11.1 kmh W 10.7 mph17.2 kmh 30.07 in1018.3 mb 0.00 in0.0 mm 0.00 in0.0 mm 0.15 in3.8 mm
05:14 AM 54.5°F12.5°C 44.9°F7.2°C 70% 6.9 mph W11.1 kmh W 10.7 mph17.2 kmh 30.07 in1018.3 mb 0.00 in0.0 mm 0.00 in0.0 mm 0.15 in3.8 mm
05:13 AM 54.5°F12.5°C 44.9°F7.2°C 70% 4.5 mph NW7.2 kmh NW 6.0 mph9.7 kmh 30.07 in1018.3 mb 0.00 in0.0 mm 0.00 in0.0 mm 0.15 in3.8 mm
05:11 AM 54.5°F12.5°C 44.9°F7.2°C 70% 6.0 mph W9.7 kmh W 8.3 mph13.4 kmh 30.07 in1018.3 mb 0.00 in0.0 mm 0.00 in0.0 mm 0.15 in3.8 mm
05:09 AM 54.5°F12.5°C 44.9°F7.2°C 70% 8.3 mph SW13.4 kmh SW 12.1 mph19.5 kmh 30.07 in1018.3 mb 0.00 in0.0 mm 0.00 in0.0 mm 0.15 in3.8 mm
05:08 AM 54.5°F12.5°C 44.9°F7.2°C 70% 8.3 mph SW13.4 kmh SW 12.1 mph19.5 kmh 30.07 in1018.3 mb 0.00 in0.0 mm 0.00 in0.0 mm 0.15 in3.8 mm
05:06 AM 54.7°F12.6°C 45.5°F7.5°C 71% 7.6 mph W12.2 kmh W 11.4 mph18.3 kmh 30.07 in1018.3 mb 0.00 in0.0 mm 0.00 in0.0 mm 0.15 in3.8 mm
05:05 AM 54.7°F12.6°C 45.5°F7.5°C 71% 7.6 mph W12.2 kmh W 13.0 mph20.9 kmh 30.07 in1018.3 mb 0.00 in0.0 mm 0.00 in0.0 mm 0.15 in3.8 mm
05:03 AM 54.7°F12.6°C 45.5°F7.5°C 71% 9.8 mph W15.8 kmh W 13.0 mph20.9 kmh 30.07 in1018.3 mb 0.00 in0.0 mm 0.00 in0.0 mm 0.15 in3.8 mm
05:02 AM 54.7°F12.6°C 45.5°F7.5°C 71% 9.8 mph W15.8 kmh W 13.0 mph20.9 kmh 30.07 in1018.3 mb 0.00 in0.0 mm 0.00 in0.0 mm 0.15 in3.8 mm
05:00 AM 54.7°F12.6°C 45.1°F7.3°C 70% 6.9 mph W11.1 kmh W 9.8 mph15.8 kmh 30.07 in1018.3 mb 0.00 in0.0 mm 0.00 in0.0 mm 0.15 in3.8 mm
04:59 AM 54.7°F12.6°C 45.1°F7.3°C 70% 5.4 mph W8.7 kmh W 6.9 mph11.1 kmh 30.07 in1018.3 mb 0.00 in0.0 mm 0.00 in0.0 mm 0.15 in3.8 mm
04:57 AM 54.5°F12.5°C 44.9°F7.2°C 70% 6.0 mph W9.7 kmh W 9.2 mph14.8 kmh 30.07 in1018.3 mb 0.00 in0.0 mm 0.00 in0.0 mm 0.15 in3.8 mm
04:56 AM 54.5°F12.5°C 44.9°F7.2°C 70% 6.0 mph W9.7 kmh W 9.2 mph14.8 kmh 30.07 in1018.3 mb 0.00 in0.0 mm 0.00 in0.0 mm 0.15 in3.8 mm
04:54 AM 54.5°F12.5°C 44.9°F7.2°C 70% 8.3 mph NNW13.4 kmh NNW 10.7 mph17.2 kmh 30.07 in1018.3 mb 0.00 in0.0 mm 0.00 in0.0 mm 0.15 in3.8 mm
04:53 AM 54.5°F12.5°C 44.9°F7.2°C 70% 4.5 mph S7.2 kmh S 6.0 mph9.7 kmh 30.08 in1018.6 mb 0.00 in0.0 mm 0.00 in0.0 mm 0.15 in3.8 mm
04:51 AM 54.5°F12.5°C 44.9°F7.2°C 70% 7.6 mph SW12.2 kmh SW 10.7 mph17.2 kmh 30.07 in1018.3 mb 0.00 in0.0 mm 0.00 in0.0 mm 0.15 in3.8 mm
04:50 AM 54.5°F12.5°C 44.9°F7.2°C 70% 7.6 mph SW12.2 kmh SW 10.7 mph17.2 kmh 30.07 in1018.3 mb 0.00 in0.0 mm 0.00 in0.0 mm 0.15 in3.8 mm
04:48 AM 54.5°F12.5°C 44.9°F7.2°C 70% 4.5 mph W7.2 kmh W 6.0 mph9.7 kmh 30.08 in1018.6 mb 0.00 in0.0 mm 0.00 in0.0 mm 0.15 in3.8 mm
04:47 AM 54.5°F12.5°C 44.9°F7.2°C 70% 6.9 mph SW11.1 kmh SW 9.2 mph14.8 kmh 30.08 in1018.6 mb 0.00 in0.0 mm 0.00 in0.0 mm 0.15 in3.8 mm
04:45 AM 54.5°F12.5°C 44.9°F7.2°C 70% 6.9 mph W11.1 kmh W 10.7 mph17.2 kmh 30.08 in1018.6 mb 0.00 in0.0 mm 0.00 in0.0 mm 0.15 in3.8 mm
04:42 AM 54.3°F12.4°C 45.5°F7.5°C 72% 6.0 mph SW9.7 kmh SW 9.8 mph15.8 kmh 30.08 in1018.6 mb 0.00 in0.0 mm 0.00 in0.0 mm 0.15 in3.8 mm
04:41 AM 54.3°F12.4°C 45.5°F7.5°C 72% 5.4 mph SE8.7 kmh SE 6.0 mph9.7 kmh 30.08 in1018.6 mb 0.00 in0.0 mm 0.00 in0.0 mm 0.15 in3.8 mm
04:39 AM 54.3°F12.4°C 45.5°F7.5°C 72% 9.2 mph SW14.8 kmh SW 12.1 mph19.5 kmh 30.08 in1018.6 mb 0.00 in0.0 mm 0.00 in0.0 mm 0.15 in3.8 mm
04:38 AM 54.3°F12.4°C 45.5°F7.5°C 72% 9.2 mph SW14.8 kmh SW 12.1 mph19.5 kmh 30.08 in1018.6 mb 0.00 in0.0 mm 0.00 in0.0 mm 0.15 in3.8 mm
04:36 AM 54.3°F12.4°C 45.5°F7.5°C 72% 9.2 mph NW14.8 kmh NW 13.0 mph20.9 kmh 30.08 in1018.6 mb 0.00 in0.0 mm 0.00 in0.0 mm 0.15 in3.8 mm
04:35 AM 54.1°F12.3°C 45.7°F7.6°C 73% 6.9 mph W11.1 kmh W 13.0 mph20.9 kmh 30.08 in1018.6 mb 0.00 in0.0 mm 0.00 in0.0 mm 0.15 in3.8 mm
04:33 AM 54.1°F12.3°C 45.3°F7.4°C 72% 3.8 mph W6.1 kmh W 5.4 mph8.7 kmh 30.08 in1018.6 mb 0.00 in0.0 mm 0.00 in0.0 mm 0.15 in3.8 mm
04:32 AM 54.1°F12.3°C 45.3°F7.4°C 72% 3.8 mph W6.1 kmh W 5.4 mph8.7 kmh 30.08 in1018.6 mb 0.00 in0.0 mm 0.00 in0.0 mm 0.15 in3.8 mm
04:30 AM 54.1°F12.3°C 45.3°F7.4°C 72% 4.5 mph NW7.2 kmh NW 6.0 mph9.7 kmh 30.08 in1018.6 mb 0.00 in0.0 mm 0.00 in0.0 mm 0.15 in3.8 mm
04:29 AM 54.1°F12.3°C 45.3°F7.4°C 72% 6.9 mph SW11.1 kmh SW 9.2 mph14.8 kmh 30.09 in1019.0 mb 0.00 in0.0 mm 0.00 in0.0 mm 0.15 in3.8 mm
04:27 AM 54.1°F12.3°C 45.7°F7.6°C 73% 6.9 mph NW11.1 kmh NW 11.4 mph18.3 kmh 30.09 in1019.0 mb 0.00 in0.0 mm 0.00 in0.0 mm 0.15 in3.8 mm
04:26 AM 54.1°F12.3°C 45.7°F7.6°C 73% 6.9 mph NW11.1 kmh NW 11.4 mph18.3 kmh 30.09 in1019.0 mb 0.00 in0.0 mm 0.00 in0.0 mm 0.15 in3.8 mm
04:24 AM 54.1°F12.3°C 45.7°F7.6°C 73% 9.2 mph WSW14.8 kmh WSW 12.1 mph19.5 kmh 30.09 in1019.0 mb 0.00 in0.0 mm 0.00 in0.0 mm 0.15 in3.8 mm
04:23 AM 54.1°F12.3°C 45.7°F7.6°C 73% 6.0 mph W9.7 kmh W 9.8 mph15.8 kmh 30.09 in1019.0 mb 0.00 in0.0 mm 0.00 in0.0 mm 0.15 in3.8 mm
04:21 AM 54.1°F12.3°C 45.7°F7.6°C 73% 8.3 mph SW13.4 kmh SW 12.1 mph19.5 kmh 30.09 in1019.0 mb 0.00 in0.0 mm 0.00 in0.0 mm 0.15 in3.8 mm
04:20 AM 54.1°F12.3°C 45.7°F7.6°C 73% 8.3 mph SW13.4 kmh SW 12.1 mph19.5 kmh 30.09 in1019.0 mb 0.00 in0.0 mm 0.00 in0.0 mm 0.15 in3.8 mm
04:18 AM 54.1°F12.3°C 45.7°F7.6°C 73% 7.6 mph W12.2 kmh W 9.2 mph14.8 kmh 30.09 in1019.0 mb 0.01 in0.3 mm 0.00 in0.0 mm 0.15 in3.8 mm
04:17 AM 54.1°F12.3°C 46.0°F7.8°C 74% 9.2 mph WNW14.8 kmh WNW 11.4 mph18.3 kmh 30.09 in1019.0 mb 0.01 in0.3 mm 0.00 in0.0 mm 0.15 in3.8 mm
04:15 AM 54.1°F12.3°C 46.0°F7.8°C 74% 6.9 mph S11.1 kmh S 9.8 mph15.8 kmh 30.09 in1019.0 mb 0.01 in0.3 mm 0.00 in0.0 mm 0.15 in3.8 mm
04:14 AM 54.1°F12.3°C 46.0°F7.8°C 74% 6.9 mph S11.1 kmh S 9.8 mph15.8 kmh 30.09 in1019.0 mb 0.01 in0.3 mm 0.00 in0.0 mm 0.15 in3.8 mm
04:12 AM 54.0°F12.2°C 45.9°F7.7°C 74% 6.9 mph NW11.1 kmh NW 9.2 mph14.8 kmh 30.09 in1019.0 mb 0.01 in0.3 mm 0.00 in0.0 mm 0.15 in3.8 mm
04:11 AM 54.0°F12.2°C 45.9°F7.7°C 74% 6.0 mph NW9.7 kmh NW 8.3 mph13.4 kmh 30.09 in1019.0 mb 0.01 in0.3 mm 0.00 in0.0 mm 0.15 in3.8 mm
04:09 AM 54.0°F12.2°C 45.9°F7.7°C 74% 6.0 mph SW9.7 kmh SW 10.7 mph17.2 kmh 30.09 in1019.0 mb 0.01 in0.3 mm 0.00 in0.0 mm 0.15 in3.8 mm
04:08 AM 54.0°F12.2°C 45.9°F7.7°C 74% 6.0 mph SW9.7 kmh SW 10.7 mph17.2 kmh 30.09 in1019.0 mb 0.01 in0.3 mm 0.00 in0.0 mm 0.15 in3.8 mm
04:06 AM 53.6°F12.0°C 46.2°F7.9°C 76% 7.6 mph SSW12.2 kmh SSW 9.8 mph15.8 kmh 30.09 in1019.0 mb 0.01 in0.3 mm 0.00 in0.0 mm 0.15 in3.8 mm
04:05 AM 53.6°F12.0°C 46.2°F7.9°C 76% 7.6 mph SSW12.2 kmh SSW 9.8 mph15.8 kmh 30.09 in1019.0 mb 0.01 in0.3 mm 0.00 in0.0 mm 0.15 in3.8 mm
04:03 AM 53.6°F12.0°C 46.2°F7.9°C 76% 7.6 mph SSW12.2 kmh SSW 9.8 mph15.8 kmh 30.10 in1019.3 mb 0.01 in0.3 mm 0.00 in0.0 mm 0.15 in3.8 mm
04:02 AM 53.6°F12.0°C 46.2°F7.9°C 76% 7.6 mph SSW12.2 kmh SSW 9.8 mph15.8 kmh 30.10 in1019.3 mb 0.01 in0.3 mm 0.00 in0.0 mm 0.15 in3.8 mm
04:00 AM 53.6°F12.0°C 46.2°F7.9°C 76% 7.6 mph SSW12.2 kmh SSW 9.8 mph15.8 kmh 30.09 in1019.0 mb 0.01 in0.3 mm 0.00 in0.0 mm 0.15 in3.8 mm
03:59 AM 53.6°F12.0°C 46.2°F7.9°C 76% 6.9 mph SW11.1 kmh SW 10.7 mph17.2 kmh 30.10 in1019.3 mb 0.01 in0.3 mm 0.00 in0.0 mm 0.15 in3.8 mm
03:57 AM 53.6°F12.0°C 46.2°F7.9°C 76% 6.0 mph W9.7 kmh W 7.6 mph12.2 kmh 30.10 in1019.3 mb 0.01 in0.3 mm 0.00 in0.0 mm 0.15 in3.8 mm
03:56 AM 53.4°F11.9°C 46.1°F7.8°C 76% 7.6 mph W12.2 kmh W 10.7 mph17.2 kmh 30.10 in1019.3 mb 0.01 in0.3 mm 0.00 in0.0 mm 0.15 in3.8 mm
03:54 AM 53.4°F11.9°C 46.1°F7.8°C 76% 7.6 mph W12.2 kmh W 10.7 mph17.2 kmh 30.10 in1019.3 mb 0.01 in0.3 mm 0.00 in0.0 mm 0.15 in3.8 mm
03:53 AM 53.4°F11.9°C 46.4°F8.0°C 77% 8.3 mph SW13.4 kmh SW 10.7 mph17.2 kmh 30.10 in1019.3 mb 0.01 in0.3 mm 0.00 in0.0 mm 0.15 in3.8 mm
03:51 AM 53.2°F11.8°C 46.6°F8.1°C 78% 7.6 mph E12.2 kmh E 9.8 mph15.8 kmh 30.10 in1019.3 mb 0.01 in0.3 mm 0.00 in0.0 mm 0.15 in3.8 mm
03:50 AM 53.2°F11.8°C 46.9°F8.3°C 79% 7.6 mph W12.2 kmh W 10.7 mph17.2 kmh 30.10 in1019.3 mb 0.01 in0.3 mm 0.00 in0.0 mm 0.15 in3.8 mm
03:48 AM 53.2°F11.8°C 46.9°F8.3°C 79% 7.6 mph W12.2 kmh W 10.7 mph17.2 kmh 30.10 in1019.3 mb 0.01 in0.3 mm 0.00 in0.0 mm 0.15 in3.8 mm
03:47 AM 53.1°F11.7°C 47.1°F8.4°C 80% 9.2 mph W14.8 kmh W 12.1 mph19.5 kmh 30.10 in1019.3 mb 0.01 in0.3 mm 0.00 in0.0 mm 0.15 in3.8 mm
03:45 AM 52.9°F11.6°C 47.2°F8.4°C 81% 4.5 mph SW7.2 kmh SW 6.9 mph11.1 kmh 30.10 in1019.3 mb 0.01 in0.3 mm 0.00 in0.0 mm 0.15 in3.8 mm
03:43 AM 52.5°F11.4°C 47.2°F8.4°C 82% 9.2 mph W14.8 kmh W 12.1 mph19.5 kmh 30.10 in1019.3 mb 0.01 in0.3 mm 0.00 in0.0 mm 0.15 in3.8 mm
03:42 AM 52.5°F11.4°C 47.2°F8.4°C 82% 9.2 mph W14.8 kmh W 12.1 mph19.5 kmh 30.10 in1019.3 mb 0.01 in0.3 mm 0.00 in0.0 mm 0.15 in3.8 mm
03:41 AM 52.2°F11.2°C 46.8°F8.2°C 82% 7.6 mph NW12.2 kmh NW 9.2 mph14.8 kmh 30.11 in1019.6 mb 0.01 in0.3 mm 0.00 in0.0 mm 0.15 in3.8 mm
03:39 AM 52.0°F11.1°C 47.0°F8.3°C 83% 6.0 mph NW9.7 kmh NW 11.4 mph18.3 kmh 30.10 in1019.3 mb 0.01 in0.3 mm 0.00 in0.0 mm 0.15 in3.8 mm
03:37 AM 51.8°F11.0°C 47.1°F8.4°C 84% 5.4 mph SW8.7 kmh SW 7.6 mph12.2 kmh 30.10 in1019.3 mb 0.01 in0.3 mm 0.00 in0.0 mm 0.15 in3.8 mm
03:36 AM 51.8°F11.0°C 47.1°F8.4°C 84% 5.4 mph SW8.7 kmh SW 7.6 mph12.2 kmh 30.10 in1019.3 mb 0.01 in0.3 mm 0.00 in0.0 mm 0.15 in3.8 mm
03:34 AM 51.6°F10.9°C 46.9°F8.3°C 84% 4.5 mph W7.2 kmh W 6.9 mph11.1 kmh 30.10 in1019.3 mb 0.01 in0.3 mm 0.00 in0.0 mm 0.15 in3.8 mm
03:33 AM 51.4°F10.8°C 47.1°F8.4°C 85% 5.4 mph W8.7 kmh W 7.6 mph12.2 kmh 30.10 in1019.3 mb 0.01 in0.3 mm 0.00 in0.0 mm 0.15 in3.8 mm
03:32 AM 51.3°F10.7°C 46.9°F8.3°C 85% 4.5 mph W7.2 kmh W 6.9 mph11.1 kmh 30.11 in1019.6 mb 0.01 in0.3 mm 0.00 in0.0 mm 0.15 in3.8 mm
03:30 AM 51.3°F10.7°C 46.9°F8.3°C 85% 4.5 mph W7.2 kmh W 6.9 mph11.1 kmh 30.11 in1019.6 mb 0.01 in0.3 mm 0.00 in0.0 mm 0.15 in3.8 mm
03:28 AM 50.9°F10.5°C 46.6°F8.1°C 85% 5.4 mph 8.7 kmh 8.3 mph13.4 kmh 30.11 in1019.6 mb 0.01 in0.3 mm 0.00 in0.0 mm 0.15 in3.8 mm
03:27 AM 50.4°F10.2°C 46.0°F7.8°C 85% 4.5 mph W7.2 kmh W 6.0 mph9.7 kmh 30.11 in1019.6 mb 0.01 in0.3 mm 0.00 in0.0 mm 0.15 in3.8 mm
03:25 AM 50.0°F10.0°C 45.7°F7.6°C 85% 6.9 mph W11.1 kmh W 11.4 mph18.3 kmh 30.11 in1019.6 mb 0.01 in0.3 mm 0.00 in0.0 mm 0.15 in3.8 mm
03:24 AM 50.0°F10.0°C 45.7°F7.6°C 85% 6.9 mph W11.1 kmh W 11.4 mph18.3 kmh 30.11 in1019.6 mb 0.01 in0.3 mm 0.00 in0.0 mm 0.15 in3.8 mm
03:22 AM 49.3°F9.6°C 45.0°F7.2°C 85% 6.0 mph SW9.7 kmh SW 7.6 mph12.2 kmh 30.11 in1019.6 mb 0.01 in0.3 mm 0.00 in0.0 mm 0.15 in3.8 mm
03:21 AM 48.9°F9.4°C 44.3°F6.8°C 84% 2.2 mph NNE3.5 kmh NNE 3.8 mph6.1 kmh 30.11 in1019.6 mb 0.01 in0.3 mm 0.35 in8.9 mm 0.15 in3.8 mm
03:19 AM 48.6°F9.2°C 44.0°F6.7°C 84% 3.1 mph W5.0 kmh W 3.8 mph6.1 kmh 30.12 in1020.0 mb 0.00 in0.0 mm 0.00 in0.0 mm 0.14 in3.6 mm
03:18 AM 48.6°F9.2°C 44.0°F6.7°C 84% 3.1 mph W5.0 kmh W 3.8 mph6.1 kmh 30.12 in1020.0 mb 0.00 in0.0 mm 0.00 in0.0 mm 0.14 in3.6 mm
03:16 AM 48.7°F9.3°C 44.4°F6.9°C 85% 0.7 mph SE1.1 kmh SE 1.6 mph2.6 kmh 30.12 in1020.0 mb 0.00 in0.0 mm 0.00 in0.0 mm 0.14 in3.6 mm
03:15 AM 48.9°F9.4°C 44.6°F7.0°C 85% 1.6 mph SE2.6 kmh SE 2.2 mph3.5 kmh 30.12 in1020.0 mb 0.00 in0.0 mm 0.00 in0.0 mm 0.14 in3.6 mm
03:13 AM 48.9°F9.4°C 44.6°F7.0°C 85% 1.6 mph NE2.6 kmh NE 2.2 mph3.5 kmh 30.12 in1020.0 mb 0.00 in0.0 mm 0.00 in0.0 mm 0.14 in3.6 mm
03:12 AM 48.9°F9.4°C 44.6°F7.0°C 85% 1.6 mph NE2.6 kmh NE 2.2 mph3.5 kmh 30.12 in1020.0 mb 0.00 in0.0 mm 0.00 in0.0 mm 0.14 in3.6 mm
03:10 AM 49.1°F9.5°C 44.8°F7.1°C 85% 1.6 mph E2.6 kmh E 3.1 mph5.0 kmh 30.12 in1020.0 mb 0.00 in0.0 mm 0.00 in0.0 mm 0.14 in3.6 mm
03:09 AM 49.1°F9.5°C 44.8°F7.1°C 85% 1.6 mph NE2.6 kmh NE 2.2 mph3.5 kmh 30.12 in1020.0 mb 0.00 in0.0 mm 0.00 in0.0 mm 0.14 in3.6 mm
03:07 AM 49.1°F9.5°C 44.8°F7.1°C 85% 1.6 mph 2.6 kmh 2.2 mph3.5 kmh 30.12 in1020.0 mb 0.00 in0.0 mm 0.00 in0.0 mm 0.14 in3.6 mm
03:06 AM 49.1°F9.5°C 44.8°F7.1°C 85% 1.6 mph 2.6 kmh 2.2 mph3.5 kmh 30.12 in1020.0 mb 0.00 in0.0 mm 0.00 in0.0 mm 0.14 in3.6 mm
03:04 AM 49.1°F9.5°C 44.8°F7.1°C 85% Calm Calm 1.6 mph2.6 kmh 30.12 in1020.0 mb 0.00 in0.0 mm 0.00 in0.0 mm 0.14 in3.6 mm
03:03 AM 48.9°F9.4°C 44.6°F7.0°C 85% 4.5 mph NE7.2 kmh NE 6.0 mph9.7 kmh 30.12 in1020.0 mb 0.00 in0.0 mm 0.00 in0.0 mm 0.14 in3.6 mm
03:01 AM 48.9°F9.4°C 44.6°F7.0°C 85% 3.1 mph W5.0 kmh W 3.8 mph6.1 kmh 30.13 in1020.3 mb 0.00 in0.0 mm 0.00 in0.0 mm 0.14 in3.6 mm
03:00 AM 48.9°F9.4°C 44.6°F7.0°C 85% 3.1 mph W5.0 kmh W 3.8 mph6.1 kmh 30.13 in1020.3 mb 0.00 in0.0 mm 0.00 in0.0 mm 0.14 in3.6 mm
02:58 AM 48.9°F9.4°C 44.6°F7.0°C 85% 2.2 mph NNE3.5 kmh NNE 3.1 mph5.0 kmh 30.13 in1020.3 mb 0.01 in0.3 mm 0.00 in0.0 mm 0.14 in3.6 mm
02:57 AM 48.9°F9.4°C 44.6°F7.0°C 85% 1.6 mph NW2.6 kmh NW 3.1 mph5.0 kmh 30.13 in1020.3 mb 0.01 in0.3 mm 0.00 in0.0 mm 0.14 in3.6 mm
02:55 AM 49.1°F9.5°C 44.8°F7.1°C 85% 2.2 mph E3.5 kmh E 3.1 mph5.0 kmh 30.13 in1020.3 mb 0.02 in0.5 mm 0.00 in0.0 mm 0.14 in3.6 mm
02:54 AM 49.1°F9.5°C 44.8°F7.1°C 85% 2.2 mph E3.5 kmh E 3.1 mph5.0 kmh 30.13 in1020.3 mb 0.13 in3.3 mm 0.00 in0.0 mm 0.14 in3.6 mm
02:52 AM 49.3°F9.6°C 45.3°F7.4°C 86% 1.6 mph NE2.6 kmh NE 2.2 mph3.5 kmh 30.13 in1020.3 mb 0.14 in3.6 mm 0.00 in0.0 mm 0.14 in3.6 mm
02:51 AM 49.5°F9.7°C 45.5°F7.5°C 86% 1.6 mph SE2.6 kmh SE 2.2 mph3.5 kmh 30.13 in1020.3 mb 0.14 in3.6 mm 0.00 in0.0 mm 0.14 in3.6 mm
02:49 AM 49.3°F9.6°C 45.0°F7.2°C 85% 1.6 mph 2.6 kmh 2.2 mph3.5 kmh 30.13 in1020.3 mb 0.14 in3.6 mm 0.00 in0.0 mm 0.14 in3.6 mm
02:48 AM 49.3°F9.6°C 45.0°F7.2°C 85% 1.6 mph 2.6 kmh 2.2 mph3.5 kmh 30.13 in1020.3 mb 0.14 in3.6 mm 0.00 in0.0 mm 0.14 in3.6 mm
02:46 AM 49.1°F9.5°C 44.8°F7.1°C 85% 2.2 mph NW3.5 kmh NW 3.1 mph5.0 kmh 30.13 in1020.3 mb 0.14 in3.6 mm 0.00 in0.0 mm 0.14 in3.6 mm
02:45 AM 48.9°F9.4°C 44.6°F7.0°C 85% 2.2 mph W3.5 kmh W 3.8 mph6.1 kmh 30.13 in1020.3 mb 0.14 in3.6 mm 0.00 in0.0 mm 0.14 in3.6 mm
02:43 AM 48.7°F9.3°C 44.4°F6.9°C 85% Calm Calm 0.7 mph1.1 kmh 30.13 in1020.3 mb 0.14 in3.6 mm 0.00 in0.0 mm 0.14 in3.6 mm
02:42 AM 48.7°F9.3°C 44.4°F6.9°C 85% Calm Calm 0.7 mph1.1 kmh 30.13 in1020.3 mb 0.14 in3.6 mm 0.00 in0.0 mm 0.14 in3.6 mm
02:40 AM 48.6°F9.2°C 44.3°F6.8°C 85% 0.7 mph S1.1 kmh S 2.2 mph3.5 kmh 30.13 in1020.3 mb 0.14 in3.6 mm 0.00 in0.0 mm 0.14 in3.6 mm
02:39 AM 48.6°F9.2°C 44.3°F6.8°C 85% 0.7 mph E1.1 kmh E 1.6 mph2.6 kmh 30.13 in1020.3 mb 0.14 in3.6 mm 0.00 in0.0 mm 0.14 in3.6 mm
02:37 AM 48.4°F9.1°C 44.1°F6.7°C 85% 1.6 mph ESE2.6 kmh ESE 2.2 mph3.5 kmh 30.13 in1020.3 mb 0.14 in3.6 mm 0.00 in0.0 mm 0.14 in3.6 mm
02:36 AM 48.4°F9.1°C 44.1°F6.7°C 85% Calm Calm -- 30.13 in1020.3 mb 0.14 in3.6 mm 0.00 in0.0 mm 0.14 in3.6 mm
02:34 AM 48.4°F9.1°C 44.1°F6.7°C 85% Calm Calm -- 30.13 in1020.3 mb 0.14 in3.6 mm 0.00 in0.0 mm 0.14 in3.6 mm
02:33 AM 48.4°F9.1°C 43.8°F6.6°C 84% Calm Calm -- 30.14 in1020.7 mb 0.14 in3.6 mm 0.00 in0.0 mm 0.14 in3.6 mm
02:31 AM 48.2°F9.0°C 43.6°F6.4°C 84% Calm Calm 0.7 mph1.1 kmh 30.13 in1020.3 mb 0.14 in3.6 mm 0.00 in0.0 mm 0.14 in3.6 mm
02:29 AM 48.2°F9.0°C 43.6°F6.4°C 84% Calm Calm 0.7 mph1.1 kmh 30.14 in1020.7 mb 0.14 in3.6 mm 0.00 in0.0 mm 0.14 in3.6 mm
02:28 AM 48.2°F9.0°C 43.6°F6.4°C 84% Calm Calm 0.7 mph1.1 kmh 30.14 in1020.7 mb 0.14 in3.6 mm 0.00 in0.0 mm 0.14 in3.6 mm
02:26 AM 48.0°F8.9°C 43.4°F6.3°C 84% 0.7 mph NW1.1 kmh NW 2.2 mph3.5 kmh 30.14 in1020.7 mb 0.14 in3.6 mm 0.00 in0.0 mm 0.14 in3.6 mm
02:25 AM 48.0°F8.9°C 43.4°F6.3°C 84% 1.6 mph W2.6 kmh W 2.2 mph3.5 kmh 30.14 in1020.7 mb 0.14 in3.6 mm 0.00 in0.0 mm 0.14 in3.6 mm
02:23 AM 48.0°F8.9°C 43.4°F6.3°C 84% 1.6 mph E2.6 kmh E 2.2 mph3.5 kmh 30.14 in1020.7 mb 0.14 in3.6 mm 0.00 in0.0 mm 0.14 in3.6 mm
02:22 AM 48.0°F8.9°C 43.4°F6.3°C 84% 1.6 mph E2.6 kmh E 2.2 mph3.5 kmh 30.14 in1020.7 mb 0.14 in3.6 mm 0.00 in0.0 mm 0.14 in3.6 mm
02:20 AM 48.0°F8.9°C 43.4°F6.3°C 84% 1.6 mph NE2.6 kmh NE 2.2 mph3.5 kmh 30.14 in1020.7 mb 0.14 in3.6 mm 0.00 in0.0 mm 0.14 in3.6 mm
02:19 AM 48.0°F8.9°C 43.4°F6.3°C 84% 2.2 mph NE3.5 kmh NE 3.1 mph5.0 kmh 30.14 in1020.7 mb 0.14 in3.6 mm 0.00 in0.0 mm 0.14 in3.6 mm
02:17 AM 48.0°F8.9°C 43.4°F6.3°C 84% 3.1 mph 5.0 kmh 4.5 mph7.2 kmh 30.14 in1020.7 mb 0.14 in3.6 mm 0.00 in0.0 mm 0.14 in3.6 mm
02:16 AM 48.0°F8.9°C 43.4°F6.3°C 84% 3.1 mph 5.0 kmh 4.5 mph7.2 kmh 30.14 in1020.7 mb 0.14 in3.6 mm 0.00 in0.0 mm 0.14 in3.6 mm
02:14 AM 47.8°F8.8°C 43.2°F6.2°C 84% Calm Calm 1.6 mph2.6 kmh 30.14 in1020.7 mb 0.14 in3.6 mm 0.00 in0.0 mm 0.14 in3.6 mm
02:13 AM 47.8°F8.8°C 43.2°F6.2°C 84% 2.2 mph NW3.5 kmh NW 3.1 mph5.0 kmh 30.14 in1020.7 mb 0.14 in3.6 mm 0.00 in0.0 mm 0.14 in3.6 mm
02:11 AM 47.8°F8.8°C 43.2°F6.2°C 84% 2.2 mph NE3.5 kmh NE 3.1 mph5.0 kmh 30.14 in1020.7 mb 0.14 in3.6 mm 0.00 in0.0 mm 0.14 in3.6 mm
02:10 AM 47.8°F8.8°C 43.2°F6.2°C 84% 2.2 mph NE3.5 kmh NE 3.1 mph5.0 kmh 30.14 in1020.7 mb 0.14 in3.6 mm 0.00 in0.0 mm 0.14 in3.6 mm
02:08 AM 47.8°F8.8°C 43.2°F6.2°C 84% 2.2 mph E3.5 kmh E 3.1 mph5.0 kmh 30.14 in1020.7 mb 0.14 in3.6 mm 0.00 in0.0 mm 0.14 in3.6 mm
02:07 AM 48.2°F9.0°C 43.6°F6.4°C 84% 2.2 mph NE3.5 kmh NE 3.8 mph6.1 kmh 30.14 in1020.7 mb 0.14 in3.6 mm 0.00 in0.0 mm 0.14 in3.6 mm
02:05 AM 48.2°F9.0°C 43.6°F6.4°C 84% 2.2 mph NE3.5 kmh NE 3.8 mph6.1 kmh 30.14 in1020.7 mb 0.14 in3.6 mm 0.00 in0.0 mm 0.14 in3.6 mm
02:04 AM 48.2°F9.0°C 43.6°F6.4°C 84% 2.2 mph NE3.5 kmh NE 3.8 mph6.1 kmh 30.14 in1020.7 mb 0.14 in3.6 mm 0.00 in0.0 mm 0.14 in3.6 mm
02:02 AM 48.2°F9.0°C 43.6°F6.4°C 84% 2.2 mph NE3.5 kmh NE 3.8 mph6.1 kmh 30.15 in1021.0 mb 0.14 in3.6 mm 0.00 in0.0 mm 0.14 in3.6 mm
02:01 AM 48.2°F9.0°C 43.6°F6.4°C 84% 2.2 mph NE3.5 kmh NE 3.8 mph6.1 kmh 30.14 in1020.7 mb 0.14 in3.6 mm 0.01 in0.3 mm 0.14 in3.6 mm
01:59 AM 48.2°F9.0°C 43.6°F6.4°C 84% 0.7 mph SE1.1 kmh SE 1.6 mph2.6 kmh 30.15 in1021.0 mb 0.13 in3.3 mm 0.71 in18.0 mm 0.13 in3.3 mm
01:58 AM 48.2°F9.0°C 43.6°F6.4°C 84% 0.7 mph SE1.1 kmh SE 1.6 mph2.6 kmh 30.15 in1021.0 mb 0.12 in3.0 mm 3.19 in81.0 mm 0.13 in3.3 mm
01:56 AM 48.6°F9.2°C 44.0°F6.7°C 84% 2.2 mph 3.5 kmh 3.1 mph5.0 kmh 30.16 in1021.3 mb 0.01 in0.3 mm 0.00 in0.0 mm 0.12 in3.0 mm
01:55 AM 48.6°F9.2°C 44.0°F6.7°C 84% 2.2 mph W3.5 kmh W 3.1 mph5.0 kmh 30.16 in1021.3 mb 0.01 in0.3 mm 0.35 in8.9 mm 0.01 in0.3 mm
01:53 AM 48.6°F9.2°C 44.0°F6.7°C 84% 1.6 mph NE2.6 kmh NE 2.2 mph3.5 kmh 30.15 in1021.0 mb 0.00 in0.0 mm 0.00 in0.0 mm 0.01 in0.3 mm
01:52 AM 48.6°F9.2°C 44.0°F6.7°C 84% 1.6 mph NE2.6 kmh NE 2.2 mph3.5 kmh 30.15 in1021.0 mb 0.00 in0.0 mm 0.00 in0.0 mm 0.01 in0.3 mm
01:50 AM 48.6°F9.2°C 44.0°F6.7°C 84% 2.2 mph E3.5 kmh E 3.1 mph5.0 kmh 30.14 in1020.7 mb 0.00 in0.0 mm 0.00 in0.0 mm 0.01 in0.3 mm
01:49 AM 48.6°F9.2°C 44.0°F6.7°C 84% 3.1 mph E5.0 kmh E 4.5 mph7.2 kmh 30.15 in1021.0 mb 0.00 in0.0 mm 0.00 in0.0 mm 0.01 in0.3 mm
01:47 AM 48.6°F9.2°C 44.0°F6.7°C 84% 3.1 mph E5.0 kmh E 3.8 mph6.1 kmh 30.15 in1021.0 mb 0.00 in0.0 mm 0.00 in0.0 mm 0.01 in0.3 mm
01:46 AM 48.6°F9.2°C 44.0°F6.7°C 84% 3.1 mph E5.0 kmh E 3.8 mph6.1 kmh 30.15 in1021.0 mb 0.00 in0.0 mm 0.00 in0.0 mm 0.01 in0.3 mm
01:44 AM 48.6°F9.2°C 44.0°F6.7°C 84% 2.2 mph E3.5 kmh E 3.8 mph6.1 kmh 30.15 in1021.0 mb 0.00 in0.0 mm 0.00 in0.0 mm 0.01 in0.3 mm
01:43 AM 48.6°F9.2°C 44.0°F6.7°C 84% 2.2 mph E3.5 kmh E 3.1 mph5.0 kmh 30.15 in1021.0 mb 0.00 in0.0 mm 0.00 in0.0 mm 0.01 in0.3 mm
01:41 AM 48.6°F9.2°C 44.0°F6.7°C 84% 2.2 mph SE3.5 kmh SE 3.1 mph5.0 kmh 30.15 in1021.0 mb 0.00 in0.0 mm 0.00 in0.0 mm 0.01 in0.3 mm
01:40 AM 48.6°F9.2°C 44.0°F6.7°C 84% 2.2 mph SE3.5 kmh SE 3.1 mph5.0 kmh 30.15 in1021.0 mb 0.00 in0.0 mm 0.00 in0.0 mm 0.01 in0.3 mm
01:38 AM 48.6°F9.2°C 44.0°F6.7°C 84% 1.6 mph E2.6 kmh E 2.2 mph3.5 kmh 30.15 in1021.0 mb 0.00 in0.0 mm 0.00 in0.0 mm 0.01 in0.3 mm
01:37 AM 48.6°F9.2°C 44.0°F6.7°C 84% 1.6 mph SE2.6 kmh SE 2.2 mph3.5 kmh 30.15 in1021.0 mb 0.00 in0.0 mm 0.00 in0.0 mm 0.01 in0.3 mm
01:35 AM 48.6°F9.2°C 44.0°F6.7°C 84% 1.6 mph SE2.6 kmh SE 2.2 mph3.5 kmh 30.15 in1021.0 mb 0.00 in0.0 mm 0.00 in0.0 mm 0.01 in0.3 mm
01:34 AM 48.6°F9.2°C 44.0°F6.7°C 84% 1.6 mph SE2.6 kmh SE 2.2 mph3.5 kmh 30.15 in1021.0 mb 0.00 in0.0 mm 0.00 in0.0 mm 0.01 in0.3 mm
01:32 AM 48.6°F9.2°C 44.0°F6.7°C 84% 1.6 mph E2.6 kmh E 2.2 mph3.5 kmh 30.15 in1021.0 mb 0.00 in0.0 mm 0.00 in0.0 mm 0.01 in0.3 mm
01:31 AM 48.7°F9.3°C 44.1°F6.7°C 84% 1.6 mph E2.6 kmh E 2.2 mph3.5 kmh 30.15 in1021.0 mb 0.00 in0.0 mm 0.00 in0.0 mm 0.01 in0.3 mm
01:29 AM 48.7°F9.3°C 44.1°F6.7°C 84% Calm Calm -- 30.16 in1021.3 mb 0.00 in0.0 mm 0.00 in0.0 mm 0.01 in0.3 mm
01:28 AM 48.7°F9.3°C 44.1°F6.7°C 84% Calm Calm -- 30.16 in1021.3 mb 0.00 in0.0 mm 0.00 in0.0 mm 0.01 in0.3 mm
01:26 AM 48.6°F9.2°C 44.0°F6.7°C 84% Calm Calm -- 30.15 in1021.0 mb 0.00 in0.0 mm 0.00 in0.0 mm 0.01 in0.3 mm
01:23 AM 48.6°F9.2°C 44.0°F6.7°C 84% 0.7 mph NW1.1 kmh NW 1.6 mph2.6 kmh 30.15 in1021.0 mb 0.00 in0.0 mm 0.00 in0.0 mm 0.01 in0.3 mm
01:22 AM 48.6°F9.2°C 44.0°F6.7°C 84% 0.7 mph NW1.1 kmh NW 1.6 mph2.6 kmh 30.15 in1021.0 mb 0.00 in0.0 mm 0.00 in0.0 mm 0.01 in0.3 mm
01:20 AM 48.6°F9.2°C 44.0°F6.7°C 84% 0.7 mph NE1.1 kmh NE 1.6 mph2.6 kmh 30.15 in1021.0 mb 0.00 in0.0 mm 0.00 in0.0 mm 0.01 in0.3 mm
01:19 AM 48.6°F9.2°C 44.0°F6.7°C 84% 3.1 mph SE5.0 kmh SE 3.8 mph6.1 kmh 30.15 in1021.0 mb 0.00 in0.0 mm 0.00 in0.0 mm 0.01 in0.3 mm
01:17 AM 48.7°F9.3°C 44.1°F6.7°C 84% 3.8 mph SE6.1 kmh SE 5.4 mph8.7 kmh 30.15 in1021.0 mb 0.00 in0.0 mm 0.00 in0.0 mm 0.01 in0.3 mm
01:16 AM 48.7°F9.3°C 44.1°F6.7°C 84% 3.1 mph E5.0 kmh E 3.8 mph6.1 kmh 30.15 in1021.0 mb 0.00 in0.0 mm 0.00 in0.0 mm 0.01 in0.3 mm
01:14 AM 48.7°F9.3°C 44.1°F6.7°C 84% 3.1 mph E5.0 kmh E 3.8 mph6.1 kmh 30.15 in1021.0 mb 0.00 in0.0 mm 0.00 in0.0 mm 0.01 in0.3 mm
01:13 AM 48.7°F9.3°C 44.1°F6.7°C 84% 0.7 mph E1.1 kmh E 2.2 mph3.5 kmh 30.15 in1021.0 mb 0.00 in0.0 mm 0.00 in0.0 mm 0.01 in0.3 mm
01:11 AM 48.7°F9.3°C 44.1°F6.7°C 84% 0.7 mph E1.1 kmh E 1.6 mph2.6 kmh 30.15 in1021.0 mb 0.00 in0.0 mm 0.00 in0.0 mm 0.01 in0.3 mm
01:10 AM 48.7°F9.3°C 44.1°F6.7°C 84% 0.7 mph NE1.1 kmh NE 1.6 mph2.6 kmh 30.15 in1021.0 mb 0.00 in0.0 mm 0.00 in0.0 mm 0.01 in0.3 mm
01:08 AM 48.7°F9.3°C 44.1°F6.7°C 84% 0.7 mph NE1.1 kmh NE 1.6 mph2.6 kmh 30.15 in1021.0 mb 0.00 in0.0 mm 0.00 in0.0 mm 0.01 in0.3 mm
01:07 AM 48.7°F9.3°C 44.1°F6.7°C 84% Calm Calm 0.7 mph1.1 kmh 30.15 in1021.0 mb 0.00 in0.0 mm 0.00 in0.0 mm 0.01 in0.3 mm
01:05 AM 48.7°F9.3°C 44.1°F6.7°C 84% 0.7 mph S1.1 kmh S 1.6 mph2.6 kmh 30.15 in1021.0 mb 0.00 in0.0 mm 0.00 in0.0 mm 0.01 in0.3 mm
01:04 AM 48.6°F9.2°C 44.0°F6.7°C 84% 2.2 mph E3.5 kmh E 3.8 mph6.1 kmh 30.16 in1021.3 mb 0.00 in0.0 mm 0.00 in0.0 mm 0.01 in0.3 mm
01:02 AM 48.6°F9.2°C 44.0°F6.7°C 84% 2.2 mph E3.5 kmh E 3.8 mph6.1 kmh 30.16 in1021.3 mb 0.00 in0.0 mm 0.00 in0.0 mm 0.01 in0.3 mm
01:01 AM 48.6°F9.2°C 44.0°F6.7°C 84% Calm Calm 0.7 mph1.1 kmh 30.16 in1021.3 mb 0.00 in0.0 mm 0.00 in0.0 mm 0.01 in0.3 mm
12:59 AM 48.6°F9.2°C 44.0°F6.7°C 84% 1.6 mph E2.6 kmh E 2.2 mph3.5 kmh 30.16 in1021.3 mb 0.00 in0.0 mm 0.00 in0.0 mm 0.01 in0.3 mm
12:57 AM 48.6°F9.2°C 44.0°F6.7°C 84% 2.2 mph E3.5 kmh E 3.1 mph5.0 kmh 30.16 in1021.3 mb 0.00 in0.0 mm 0.00 in0.0 mm 0.01 in0.3 mm
12:56 AM 48.6°F9.2°C 44.0°F6.7°C 84% 2.2 mph E3.5 kmh E 3.1 mph5.0 kmh 30.16 in1021.3 mb 0.00 in0.0 mm 0.00 in0.0 mm 0.01 in0.3 mm
12:54 AM 48.6°F9.2°C 44.0°F6.7°C 84% 4.5 mph ESE7.2 kmh ESE 5.4 mph8.7 kmh 30.15 in1021.0 mb 0.00 in0.0 mm 0.00 in0.0 mm 0.01 in0.3 mm
12:53 AM 48.6°F9.2°C 44.0°F6.7°C 84% 3.8 mph SSE6.1 kmh SSE 4.5 mph7.2 kmh 30.15 in1021.0 mb 0.00 in0.0 mm 0.00 in0.0 mm 0.01 in0.3 mm
12:51 AM 48.6°F9.2°C 44.0°F6.7°C 84% 3.1 mph E5.0 kmh E 3.8 mph6.1 kmh 30.16 in1021.3 mb 0.00 in0.0 mm 0.00 in0.0 mm 0.01 in0.3 mm
12:50 AM 48.6°F9.2°C 44.0°F6.7°C 84% 3.1 mph E5.0 kmh E 3.8 mph6.1 kmh 30.16 in1021.3 mb 0.00 in0.0 mm 0.00 in0.0 mm 0.01 in0.3 mm
12:48 AM 48.6°F9.2°C 44.0°F6.7°C 84% 2.2 mph ESE3.5 kmh ESE 3.8 mph6.1 kmh 30.15 in1021.0 mb 0.00 in0.0 mm 0.00 in0.0 mm 0.01 in0.3 mm
12:47 AM 48.6°F9.2°C 44.0°F6.7°C 84% 3.1 mph SE5.0 kmh SE 3.8 mph6.1 kmh 30.16 in1021.3 mb 0.00 in0.0 mm 0.00 in0.0 mm 0.01 in0.3 mm
12:45 AM 48.6°F9.2°C 44.0°F6.7°C 84% 1.6 mph ESE2.6 kmh ESE 3.1 mph5.0 kmh 30.16 in1021.3 mb 0.01 in0.3 mm 0.00 in0.0 mm 0.01 in0.3 mm
12:44 AM 48.6°F9.2°C 44.0°F6.7°C 84% 1.6 mph ESE2.6 kmh ESE 3.1 mph5.0 kmh 30.16 in1021.3 mb 0.01 in0.3 mm 0.00 in0.0 mm 0.01 in0.3 mm
12:42 AM 48.4°F9.1°C 43.8°F6.6°C 84% 2.2 mph SE3.5 kmh SE 3.1 mph5.0 kmh 30.16 in1021.3 mb 0.01 in0.3 mm 0.00 in0.0 mm 0.01 in0.3 mm
12:41 AM 48.4°F9.1°C 43.8°F6.6°C 84% 0.7 mph S1.1 kmh S 1.6 mph2.6 kmh 30.16 in1021.3 mb 0.01 in0.3 mm 0.00 in0.0 mm 0.01 in0.3 mm
12:39 AM 48.6°F9.2°C 44.0°F6.7°C 84% Calm Calm 0.7 mph1.1 kmh 30.16 in1021.3 mb 0.01 in0.3 mm 0.00 in0.0 mm 0.01 in0.3 mm
12:38 AM 48.6°F9.2°C 44.0°F6.7°C 84% Calm Calm 0.7 mph1.1 kmh 30.16 in1021.3 mb 0.01 in0.3 mm 0.00 in0.0 mm 0.01 in0.3 mm
12:36 AM 48.6°F9.2°C 44.0°F6.7°C 84% 0.7 mph E1.1 kmh E 1.6 mph2.6 kmh 30.16 in1021.3 mb 0.01 in0.3 mm 0.00 in0.0 mm 0.01 in0.3 mm
12:35 AM 48.4°F9.1°C 43.8°F6.6°C 84% 1.6 mph ESE2.6 kmh ESE 2.2 mph3.5 kmh 30.16 in1021.3 mb 0.01 in0.3 mm 0.00 in0.0 mm 0.01 in0.3 mm
12:33 AM 48.6°F9.2°C 44.0°F6.7°C 84% Calm Calm 0.7 mph1.1 kmh 30.16 in1021.3 mb 0.01 in0.3 mm 0.00 in0.0 mm 0.01 in0.3 mm
12:32 AM 48.6°F9.2°C 44.0°F6.7°C 84% Calm Calm 0.7 mph1.1 kmh 30.16 in1021.3 mb 0.01 in0.3 mm 0.00 in0.0 mm 0.01 in0.3 mm
12:30 AM 48.6°F9.2°C 44.0°F6.7°C 84% 1.6 mph E2.6 kmh E 2.2 mph3.5 kmh 30.17 in1021.7 mb 0.01 in0.3 mm 0.00 in0.0 mm 0.01 in0.3 mm
12:29 AM 48.6°F9.2°C 44.0°F6.7°C 84% 2.2 mph SE3.5 kmh SE 3.1 mph5.0 kmh 30.16 in1021.3 mb 0.01 in0.3 mm 0.00 in0.0 mm 0.01 in0.3 mm
12:27 AM 48.6°F9.2°C 44.0°F6.7°C 84% 1.6 mph SE2.6 kmh SE 2.2 mph3.5 kmh 30.16 in1021.3 mb 0.01 in0.3 mm 0.00 in0.0 mm 0.01 in0.3 mm
12:26 AM 48.6°F9.2°C 44.0°F6.7°C 84% 1.6 mph SE2.6 kmh SE 2.2 mph3.5 kmh 30.16 in1021.3 mb 0.01 in0.3 mm 0.00 in0.0 mm 0.01 in0.3 mm
12:24 AM 48.6°F9.2°C 44.0°F6.7°C 84% 1.6 mph SE2.6 kmh SE 2.2 mph3.5 kmh 30.16 in1021.3 mb 0.01 in0.3 mm 0.00 in0.0 mm 0.01 in0.3 mm
12:23 AM 48.6°F9.2°C 44.0°F6.7°C 84% 1.6 mph SE2.6 kmh SE 2.2 mph3.5 kmh 30.17 in1021.7 mb 0.01 in0.3 mm 0.00 in0.0 mm 0.01 in0.3 mm
12:21 AM 48.6°F9.2°C 44.0°F6.7°C 84% 1.6 mph E2.6 kmh E 2.2 mph3.5 kmh 30.17 in1021.7 mb 0.01 in0.3 mm 0.00 in0.0 mm 0.01 in0.3 mm
12:20 AM 48.6°F9.2°C 44.0°F6.7°C 84% 1.6 mph E2.6 kmh E 2.2 mph3.5 kmh 30.17 in1021.7 mb 0.01 in0.3 mm 0.00 in0.0 mm 0.01 in0.3 mm
12:18 AM 48.6°F9.2°C 44.0°F6.7°C 84% 2.2 mph E3.5 kmh E 3.1 mph5.0 kmh 30.17 in1021.7 mb 0.01 in0.3 mm 0.00 in0.0 mm 0.01 in0.3 mm
12:17 AM 48.4°F9.1°C 43.8°F6.6°C 84% 3.1 mph E5.0 kmh E 4.5 mph7.2 kmh 30.17 in1021.7 mb 0.01 in0.3 mm 0.00 in0.0 mm 0.01 in0.3 mm
12:15 AM 48.4°F9.1°C 43.8°F6.6°C 84% 2.2 mph NE3.5 kmh NE 3.1 mph5.0 kmh 30.17 in1021.7 mb 0.01 in0.3 mm 0.00 in0.0 mm 0.01 in0.3 mm
12:14 AM 48.4°F9.1°C 43.8°F6.6°C 84% 2.2 mph NE3.5 kmh NE 3.1 mph5.0 kmh 30.17 in1021.7 mb 0.01 in0.3 mm 0.00 in0.0 mm 0.01 in0.3 mm
12:12 AM 48.4°F9.1°C 43.8°F6.6°C 84% 1.6 mph SE2.6 kmh SE 3.1 mph5.0 kmh 30.17 in1021.7 mb 0.01 in0.3 mm 0.00 in0.0 mm 0.01 in0.3 mm
12:11 AM 48.4°F9.1°C 43.8°F6.6°C 84% 0.7 mph E1.1 kmh E 1.6 mph2.6 kmh 30.17 in1021.7 mb 0.01 in0.3 mm 0.00 in0.0 mm 0.01 in0.3 mm
12:09 AM 48.4°F9.1°C 43.8°F6.6°C 84% 0.7 mph SE1.1 kmh SE 1.6 mph2.6 kmh 30.17 in1021.7 mb 0.01 in0.3 mm 0.00 in0.0 mm 0.01 in0.3 mm
12:08 AM 48.4°F9.1°C 43.8°F6.6°C 84% 0.7 mph SE1.1 kmh SE 1.6 mph2.6 kmh 30.17 in1021.7 mb 0.01 in0.3 mm 0.00 in0.0 mm 0.01 in0.3 mm
12:06 AM 48.4°F9.1°C 43.8°F6.6°C 84% Calm Calm -- 30.17 in1021.7 mb 0.01 in0.3 mm 0.00 in0.0 mm 0.01 in0.3 mm
12:05 AM 48.4°F9.1°C 43.8°F6.6°C 84% Calm Calm -- 30.17 in1021.7 mb 0.01 in0.3 mm 0.00 in0.0 mm 0.01 in0.3 mm
12:03 AM 48.4°F9.1°C 43.8°F6.6°C 84% Calm Calm -- 30.17 in1021.7 mb 0.01 in0.3 mm 0.00 in0.0 mm 0.01 in0.3 mm
12:02 AM 48.4°F9.1°C 43.8°F6.6°C 84% Calm Calm -- 30.17 in1021.7 mb 0.01 in0.3 mm 0.35 in8.9 mm 0.01 in0.3 mm
12:00 AM 48.4°F9.1°C 43.8°F6.6°C 84% Calm Calm -- 30.17 in1021.7 mb 0.00 in0.0 mm 0.00 in0.0 mm 0.00 in0.0 mm